<?xml version="1.0" encoding="UTF-8" standalone="no" ?>
<gpx xmlns="http://www.topografix.com/GPX/1/1" xmlns:xsi="http://www.w3.org/2001/XMLSchema-instance" xsi:schemaLocation="http://www.topografix.com/GPX/1/1 http://www.topografix.com/GPX/1/1/gpx.xsd" version="1.1" creator="VisuGPX - https://www.visugpx.com">
  <metadata>
    <name>Pointe de Rognier</name>
    <desc><![CDATA[Pointe de Rognier en boucle (petit passage sanglier)]]></desc>
  </metadata>
  <trk>
    <name><![CDATA[pointe de rognier]]></name>
    <desc><![CDATA[<h1>OruxMaps</h1><br /><hr align="center" width="480" style="height: 2px; width: 517px"/><h2>Nom: pointe de rognier</h2><br /><p>Temps de départ: 06/27/2015 09:46</p><p>Temps d'arrivée: 06/27/2015 18:07</p><p>Distance: 17,5km (08:20)</p><p>Temps déplacement: 06:21</p><p>Vitesse moyenne: 2,1km/h</p><p>Vitesse moyenne: 2,7km/h</p><p>Vitess Max.: 6,7km/h</p><p>Altitude minimale: 1477m</p><p>Altitude maximale: 2342m</p><p>Vitesse d'élévation: 431,5m/h</p><p>Vitesse de descente: -409,5m/h</p><p>Gain Altitude: 1704m</p><p>Perte Altitude: -1671m</p><p>Temps d'élévation: 03:56</p><p>Temps de descente: 04:04</p><hr align="center" width="480" style="height: 2px; width: 517px"/>]]></desc>
    <trkseg>
      <trkpt lat="45.41844" lon="6.1686">
        <ele>1694.87</ele>
        <time>2015-06-27T07:46:24Z</time>
      </trkpt>
      <trkpt lat="45.41839" lon="6.16834">
        <ele>1695.86</ele>
        <time>2015-06-27T07:47:01Z</time>
      </trkpt>
      <trkpt lat="45.41838" lon="6.16808">
        <ele>1697.86</ele>
        <time>2015-06-27T07:47:18Z</time>
      </trkpt>
      <trkpt lat="45.41856" lon="6.16806">
        <ele>1696.98</ele>
        <time>2015-06-27T07:47:38Z</time>
      </trkpt>
      <trkpt lat="45.41863" lon="6.1683">
        <ele>1695.88</ele>
        <time>2015-06-27T07:47:56Z</time>
      </trkpt>
      <trkpt lat="45.41863" lon="6.16857">
        <ele>1701.24</ele>
        <time>2015-06-27T07:48:14Z</time>
      </trkpt>
      <trkpt lat="45.41861" lon="6.16883">
        <ele>1705.86</ele>
        <time>2015-06-27T07:48:33Z</time>
      </trkpt>
      <trkpt lat="45.41862" lon="6.1691">
        <ele>1702.01</ele>
        <time>2015-06-27T07:48:54Z</time>
      </trkpt>
      <trkpt lat="45.41869" lon="6.16971">
        <ele>1706.06</ele>
        <time>2015-06-27T07:49:34Z</time>
      </trkpt>
      <trkpt lat="45.41865" lon="6.16997">
        <ele>1713.08</ele>
        <time>2015-06-27T07:49:51Z</time>
      </trkpt>
      <trkpt lat="45.41879" lon="6.1698">
        <ele>1716.76</ele>
        <time>2015-06-27T07:50:26Z</time>
      </trkpt>
      <trkpt lat="45.4188" lon="6.16954">
        <ele>1718.25</ele>
        <time>2015-06-27T07:50:42Z</time>
      </trkpt>
      <trkpt lat="45.4189" lon="6.16931">
        <ele>1719.5</ele>
        <time>2015-06-27T07:50:58Z</time>
      </trkpt>
      <trkpt lat="45.41903" lon="6.16912">
        <ele>1719.87</ele>
        <time>2015-06-27T07:51:14Z</time>
      </trkpt>
      <trkpt lat="45.41921" lon="6.16913">
        <ele>1723.82</ele>
        <time>2015-06-27T07:51:39Z</time>
      </trkpt>
      <trkpt lat="45.41924" lon="6.16938">
        <ele>1725.63</ele>
        <time>2015-06-27T07:52:04Z</time>
      </trkpt>
      <trkpt lat="45.41929" lon="6.16963">
        <ele>1732.56</ele>
        <time>2015-06-27T07:52:33Z</time>
      </trkpt>
      <trkpt lat="45.41937" lon="6.16987">
        <ele>1736.71</ele>
        <time>2015-06-27T07:53:02Z</time>
      </trkpt>
      <trkpt lat="45.41944" lon="6.1701">
        <ele>1743.09</ele>
        <time>2015-06-27T07:53:35Z</time>
      </trkpt>
      <trkpt lat="45.41946" lon="6.17036">
        <ele>1748.55</ele>
        <time>2015-06-27T07:54:10Z</time>
      </trkpt>
      <trkpt lat="45.41935" lon="6.17056">
        <ele>1753.03</ele>
        <time>2015-06-27T07:54:36Z</time>
      </trkpt>
      <trkpt lat="45.41932" lon="6.17082">
        <ele>1754.55</ele>
        <time>2015-06-27T07:55:01Z</time>
      </trkpt>
      <trkpt lat="45.41927" lon="6.17108">
        <ele>1756.79</ele>
        <time>2015-06-27T07:55:22Z</time>
      </trkpt>
      <trkpt lat="45.41923" lon="6.17134">
        <ele>1752.09</ele>
        <time>2015-06-27T07:55:40Z</time>
      </trkpt>
      <trkpt lat="45.41918" lon="6.1716">
        <ele>1750.15</ele>
        <time>2015-06-27T07:55:56Z</time>
      </trkpt>
      <trkpt lat="45.41911" lon="6.17184">
        <ele>1755.14</ele>
        <time>2015-06-27T07:56:10Z</time>
      </trkpt>
      <trkpt lat="45.41906" lon="6.17211">
        <ele>1754.27</ele>
        <time>2015-06-27T07:56:24Z</time>
      </trkpt>
      <trkpt lat="45.41905" lon="6.17238">
        <ele>1753.8</ele>
        <time>2015-06-27T07:56:40Z</time>
      </trkpt>
      <trkpt lat="45.41897" lon="6.17262">
        <ele>1757.25</ele>
        <time>2015-06-27T07:56:54Z</time>
      </trkpt>
      <trkpt lat="45.4189" lon="6.17286">
        <ele>1763.15</ele>
        <time>2015-06-27T07:57:12Z</time>
      </trkpt>
      <trkpt lat="45.41887" lon="6.17313">
        <ele>1758.57</ele>
        <time>2015-06-27T07:57:32Z</time>
      </trkpt>
      <trkpt lat="45.41879" lon="6.17338">
        <ele>1761.69</ele>
        <time>2015-06-27T07:57:46Z</time>
      </trkpt>
      <trkpt lat="45.41867" lon="6.17358">
        <ele>1764.66</ele>
        <time>2015-06-27T07:58:00Z</time>
      </trkpt>
      <trkpt lat="45.41856" lon="6.17378">
        <ele>1763.98</ele>
        <time>2015-06-27T07:58:13Z</time>
      </trkpt>
      <trkpt lat="45.4184" lon="6.17391">
        <ele>1763.91</ele>
        <time>2015-06-27T07:58:27Z</time>
      </trkpt>
      <trkpt lat="45.41826" lon="6.17408">
        <ele>1763.75</ele>
        <time>2015-06-27T07:58:42Z</time>
      </trkpt>
      <trkpt lat="45.41809" lon="6.17422">
        <ele>1767.48</ele>
        <time>2015-06-27T07:58:58Z</time>
      </trkpt>
      <trkpt lat="45.41794" lon="6.17437">
        <ele>1767.28</ele>
        <time>2015-06-27T07:59:15Z</time>
      </trkpt>
      <trkpt lat="45.4178" lon="6.17455">
        <ele>1769.15</ele>
        <time>2015-06-27T07:59:32Z</time>
      </trkpt>
      <trkpt lat="45.41763" lon="6.17465">
        <ele>1772.61</ele>
        <time>2015-06-27T07:59:46Z</time>
      </trkpt>
      <trkpt lat="45.41751" lon="6.17484">
        <ele>1779.01</ele>
        <time>2015-06-27T08:00:08Z</time>
      </trkpt>
      <trkpt lat="45.41735" lon="6.17499">
        <ele>1780.36</ele>
        <time>2015-06-27T08:00:25Z</time>
      </trkpt>
      <trkpt lat="45.4172" lon="6.17516">
        <ele>1779.32</ele>
        <time>2015-06-27T08:00:44Z</time>
      </trkpt>
      <trkpt lat="45.41705" lon="6.1753">
        <ele>1779.69</ele>
        <time>2015-06-27T08:00:59Z</time>
      </trkpt>
      <trkpt lat="45.4169" lon="6.17547">
        <ele>1779.94</ele>
        <time>2015-06-27T08:01:15Z</time>
      </trkpt>
      <trkpt lat="45.41672" lon="6.17556">
        <ele>1779.88</ele>
        <time>2015-06-27T08:01:30Z</time>
      </trkpt>
      <trkpt lat="45.41659" lon="6.17574">
        <ele>1783.93</ele>
        <time>2015-06-27T08:01:52Z</time>
      </trkpt>
      <trkpt lat="45.41649" lon="6.17595">
        <ele>1788.11</ele>
        <time>2015-06-27T08:02:16Z</time>
      </trkpt>
      <trkpt lat="45.41636" lon="6.17615">
        <ele>1787.3</ele>
        <time>2015-06-27T08:02:32Z</time>
      </trkpt>
      <trkpt lat="45.41628" lon="6.1764">
        <ele>1787.29</ele>
        <time>2015-06-27T08:02:49Z</time>
      </trkpt>
      <trkpt lat="45.4162" lon="6.17664">
        <ele>1789.11</ele>
        <time>2015-06-27T08:03:08Z</time>
      </trkpt>
      <trkpt lat="45.41615" lon="6.17688">
        <ele>1788.36</ele>
        <time>2015-06-27T08:03:24Z</time>
      </trkpt>
      <trkpt lat="45.41609" lon="6.17713">
        <ele>1793.32</ele>
        <time>2015-06-27T08:03:40Z</time>
      </trkpt>
      <trkpt lat="45.41607" lon="6.1774">
        <ele>1792.32</ele>
        <time>2015-06-27T08:03:56Z</time>
      </trkpt>
      <trkpt lat="45.41599" lon="6.17764">
        <ele>1796.63</ele>
        <time>2015-06-27T08:04:12Z</time>
      </trkpt>
      <trkpt lat="45.41588" lon="6.17785">
        <ele>1799.3</ele>
        <time>2015-06-27T08:04:29Z</time>
      </trkpt>
      <trkpt lat="45.41574" lon="6.17804">
        <ele>1799.13</ele>
        <time>2015-06-27T08:04:47Z</time>
      </trkpt>
      <trkpt lat="45.41561" lon="6.17822">
        <ele>1802.75</ele>
        <time>2015-06-27T08:05:06Z</time>
      </trkpt>
      <trkpt lat="45.41543" lon="6.17828">
        <ele>1802.19</ele>
        <time>2015-06-27T08:05:30Z</time>
      </trkpt>
      <trkpt lat="45.41524" lon="6.17834">
        <ele>1803.28</ele>
        <time>2015-06-27T08:05:47Z</time>
      </trkpt>
      <trkpt lat="45.41507" lon="6.17843">
        <ele>1804.85</ele>
        <time>2015-06-27T08:06:05Z</time>
      </trkpt>
      <trkpt lat="45.4149" lon="6.17855">
        <ele>1804.53</ele>
        <time>2015-06-27T08:06:22Z</time>
      </trkpt>
      <trkpt lat="45.41472" lon="6.17852">
        <ele>1805.01</ele>
        <time>2015-06-27T08:06:43Z</time>
      </trkpt>
      <trkpt lat="45.41453" lon="6.17854">
        <ele>1804.88</ele>
        <time>2015-06-27T08:07:00Z</time>
      </trkpt>
      <trkpt lat="45.41435" lon="6.17853">
        <ele>1808.6</ele>
        <time>2015-06-27T08:07:17Z</time>
      </trkpt>
      <trkpt lat="45.41416" lon="6.17852">
        <ele>1808.63</ele>
        <time>2015-06-27T08:07:31Z</time>
      </trkpt>
      <trkpt lat="45.41398" lon="6.17856">
        <ele>1808.88</ele>
        <time>2015-06-27T08:07:46Z</time>
      </trkpt>
      <trkpt lat="45.4138" lon="6.17856">
        <ele>1808.5</ele>
        <time>2015-06-27T08:08:07Z</time>
      </trkpt>
      <trkpt lat="45.41361" lon="6.17852">
        <ele>1807.91</ele>
        <time>2015-06-27T08:08:20Z</time>
      </trkpt>
      <trkpt lat="45.41343" lon="6.17847">
        <ele>1808.82</ele>
        <time>2015-06-27T08:08:34Z</time>
      </trkpt>
      <trkpt lat="45.41325" lon="6.17842">
        <ele>1809.88</ele>
        <time>2015-06-27T08:08:48Z</time>
      </trkpt>
      <trkpt lat="45.41306" lon="6.17835">
        <ele>1809.97</ele>
        <time>2015-06-27T08:09:02Z</time>
      </trkpt>
      <trkpt lat="45.41288" lon="6.17826">
        <ele>1810.33</ele>
        <time>2015-06-27T08:09:16Z</time>
      </trkpt>
      <trkpt lat="45.41283" lon="6.17851">
        <ele>1818.53</ele>
        <time>2015-06-27T08:09:58Z</time>
      </trkpt>
      <trkpt lat="45.4129" lon="6.17876">
        <ele>1822.37</ele>
        <time>2015-06-27T08:10:22Z</time>
      </trkpt>
      <trkpt lat="45.41297" lon="6.17899">
        <ele>1829.25</ele>
        <time>2015-06-27T08:10:49Z</time>
      </trkpt>
      <trkpt lat="45.41309" lon="6.17919">
        <ele>1832.74</ele>
        <time>2015-06-27T08:11:13Z</time>
      </trkpt>
      <trkpt lat="45.41323" lon="6.17936">
        <ele>1839.62</ele>
        <time>2015-06-27T08:11:39Z</time>
      </trkpt>
      <trkpt lat="45.4133" lon="6.17959">
        <ele>1843.8</ele>
        <time>2015-06-27T08:12:07Z</time>
      </trkpt>
      <trkpt lat="45.41335" lon="6.17985">
        <ele>1846.87</ele>
        <time>2015-06-27T08:12:26Z</time>
      </trkpt>
      <trkpt lat="45.41334" lon="6.18011">
        <ele>1846.38</ele>
        <time>2015-06-27T08:12:43Z</time>
      </trkpt>
      <trkpt lat="45.41331" lon="6.18037">
        <ele>1847.98</ele>
        <time>2015-06-27T08:13:00Z</time>
      </trkpt>
      <trkpt lat="45.41333" lon="6.18063">
        <ele>1852.71</ele>
        <time>2015-06-27T08:13:19Z</time>
      </trkpt>
      <trkpt lat="45.41337" lon="6.18089">
        <ele>1855.84</ele>
        <time>2015-06-27T08:13:42Z</time>
      </trkpt>
      <trkpt lat="45.41334" lon="6.18115">
        <ele>1860.88</ele>
        <time>2015-06-27T08:14:02Z</time>
      </trkpt>
      <trkpt lat="45.41328" lon="6.18141">
        <ele>1862.51</ele>
        <time>2015-06-27T08:14:18Z</time>
      </trkpt>
      <trkpt lat="45.41325" lon="6.18168">
        <ele>1861.88</ele>
        <time>2015-06-27T08:14:33Z</time>
      </trkpt>
      <trkpt lat="45.41319" lon="6.18193">
        <ele>1861.82</ele>
        <time>2015-06-27T08:14:50Z</time>
      </trkpt>
      <trkpt lat="45.41312" lon="6.18218">
        <ele>1863.81</ele>
        <time>2015-06-27T08:15:04Z</time>
      </trkpt>
      <trkpt lat="45.41299" lon="6.18237">
        <ele>1864.88</ele>
        <time>2015-06-27T08:15:21Z</time>
      </trkpt>
      <trkpt lat="45.41298" lon="6.18264">
        <ele>1862.9</ele>
        <time>2015-06-27T08:15:37Z</time>
      </trkpt>
      <trkpt lat="45.41293" lon="6.18288">
        <ele>1866.59</ele>
        <time>2015-06-27T08:16:11Z</time>
      </trkpt>
      <trkpt lat="45.41282" lon="6.18309">
        <ele>1869.87</ele>
        <time>2015-06-27T08:16:29Z</time>
      </trkpt>
      <trkpt lat="45.41274" lon="6.18332">
        <ele>1877.56</ele>
        <time>2015-06-27T08:16:53Z</time>
      </trkpt>
      <trkpt lat="45.41267" lon="6.18356">
        <ele>1877.88</ele>
        <time>2015-06-27T08:17:10Z</time>
      </trkpt>
      <trkpt lat="45.41254" lon="6.18374">
        <ele>1877.88</ele>
        <time>2015-06-27T08:17:24Z</time>
      </trkpt>
      <trkpt lat="45.41238" lon="6.1839">
        <ele>1877.38</ele>
        <time>2015-06-27T08:17:38Z</time>
      </trkpt>
      <trkpt lat="45.41222" lon="6.18401">
        <ele>1876.86</ele>
        <time>2015-06-27T08:17:55Z</time>
      </trkpt>
      <trkpt lat="45.41206" lon="6.18416">
        <ele>1878.87</ele>
        <time>2015-06-27T08:18:12Z</time>
      </trkpt>
      <trkpt lat="45.41188" lon="6.18427">
        <ele>1879.98</ele>
        <time>2015-06-27T08:18:36Z</time>
      </trkpt>
      <trkpt lat="45.41174" lon="6.18443">
        <ele>1878.88</ele>
        <time>2015-06-27T08:18:52Z</time>
      </trkpt>
      <trkpt lat="45.41156" lon="6.1845">
        <ele>1879.83</ele>
        <time>2015-06-27T08:19:07Z</time>
      </trkpt>
      <trkpt lat="45.41138" lon="6.18454">
        <ele>1877.94</ele>
        <time>2015-06-27T08:19:30Z</time>
      </trkpt>
      <trkpt lat="45.41119" lon="6.18453">
        <ele>1876.25</ele>
        <time>2015-06-27T08:19:46Z</time>
      </trkpt>
      <trkpt lat="45.411" lon="6.18454">
        <ele>1873.88</ele>
        <time>2015-06-27T08:20:01Z</time>
      </trkpt>
      <trkpt lat="45.41081" lon="6.18446">
        <ele>1871.89</ele>
        <time>2015-06-27T08:20:16Z</time>
      </trkpt>
      <trkpt lat="45.41063" lon="6.18446">
        <ele>1872.62</ele>
        <time>2015-06-27T08:20:31Z</time>
      </trkpt>
      <trkpt lat="45.41045" lon="6.18454">
        <ele>1872.88</ele>
        <time>2015-06-27T08:20:46Z</time>
      </trkpt>
      <trkpt lat="45.41027" lon="6.18458">
        <ele>1873.87</ele>
        <time>2015-06-27T08:21:02Z</time>
      </trkpt>
      <trkpt lat="45.41009" lon="6.18466">
        <ele>1869.41</ele>
        <time>2015-06-27T08:21:18Z</time>
      </trkpt>
      <trkpt lat="45.40991" lon="6.18473">
        <ele>1870.75</ele>
        <time>2015-06-27T08:21:33Z</time>
      </trkpt>
      <trkpt lat="45.40973" lon="6.18472">
        <ele>1872.36</ele>
        <time>2015-06-27T08:21:50Z</time>
      </trkpt>
      <trkpt lat="45.40955" lon="6.18475">
        <ele>1870.97</ele>
        <time>2015-06-27T08:22:04Z</time>
      </trkpt>
      <trkpt lat="45.40936" lon="6.18471">
        <ele>1869.88</ele>
        <time>2015-06-27T08:22:18Z</time>
      </trkpt>
      <trkpt lat="45.40918" lon="6.18471">
        <ele>1868.01</ele>
        <time>2015-06-27T08:22:33Z</time>
      </trkpt>
      <trkpt lat="45.409" lon="6.18475">
        <ele>1865.89</ele>
        <time>2015-06-27T08:22:48Z</time>
      </trkpt>
      <trkpt lat="45.40882" lon="6.18477">
        <ele>1863.38</ele>
        <time>2015-06-27T08:23:04Z</time>
      </trkpt>
      <trkpt lat="45.40866" lon="6.18491">
        <ele>1860.88</ele>
        <time>2015-06-27T08:23:18Z</time>
      </trkpt>
      <trkpt lat="45.40847" lon="6.18495">
        <ele>1860.88</ele>
        <time>2015-06-27T08:23:34Z</time>
      </trkpt>
      <trkpt lat="45.40828" lon="6.18497">
        <ele>1860.11</ele>
        <time>2015-06-27T08:23:50Z</time>
      </trkpt>
      <trkpt lat="45.4081" lon="6.18501">
        <ele>1855.51</ele>
        <time>2015-06-27T08:24:05Z</time>
      </trkpt>
      <trkpt lat="45.40791" lon="6.18502">
        <ele>1852.39</ele>
        <time>2015-06-27T08:24:19Z</time>
      </trkpt>
      <trkpt lat="45.4078" lon="6.18522">
        <ele>1848.26</ele>
        <time>2015-06-27T08:24:40Z</time>
      </trkpt>
      <trkpt lat="45.40779" lon="6.18549">
        <ele>1845.94</ele>
        <time>2015-06-27T08:24:54Z</time>
      </trkpt>
      <trkpt lat="45.40779" lon="6.18575">
        <ele>1850.74</ele>
        <time>2015-06-27T08:25:19Z</time>
      </trkpt>
      <trkpt lat="45.40783" lon="6.18602">
        <ele>1855.75</ele>
        <time>2015-06-27T08:25:46Z</time>
      </trkpt>
      <trkpt lat="45.40776" lon="6.18626">
        <ele>1857.94</ele>
        <time>2015-06-27T08:26:14Z</time>
      </trkpt>
      <trkpt lat="45.40761" lon="6.18642">
        <ele>1856.75</ele>
        <time>2015-06-27T08:26:30Z</time>
      </trkpt>
      <trkpt lat="45.40745" lon="6.18653">
        <ele>1854.89</ele>
        <time>2015-06-27T08:26:50Z</time>
      </trkpt>
      <trkpt lat="45.40731" lon="6.18669">
        <ele>1857.75</ele>
        <time>2015-06-27T08:27:19Z</time>
      </trkpt>
      <trkpt lat="45.40713" lon="6.18672">
        <ele>1858.38</ele>
        <time>2015-06-27T08:27:38Z</time>
      </trkpt>
      <trkpt lat="45.40697" lon="6.18687">
        <ele>1860.11</ele>
        <time>2015-06-27T08:28:06Z</time>
      </trkpt>
      <trkpt lat="45.40687" lon="6.18708">
        <ele>1865.81</ele>
        <time>2015-06-27T08:28:31Z</time>
      </trkpt>
      <trkpt lat="45.4067" lon="6.18718">
        <ele>1866.89</ele>
        <time>2015-06-27T08:28:51Z</time>
      </trkpt>
      <trkpt lat="45.40656" lon="6.18735">
        <ele>1868.62</ele>
        <time>2015-06-27T08:29:09Z</time>
      </trkpt>
      <trkpt lat="45.4064" lon="6.18748">
        <ele>1865.94</ele>
        <time>2015-06-27T08:29:29Z</time>
      </trkpt>
      <trkpt lat="45.40633" lon="6.18773">
        <ele>1868.38</ele>
        <time>2015-06-27T08:29:54Z</time>
      </trkpt>
      <trkpt lat="45.40622" lon="6.18794">
        <ele>1871.75</ele>
        <time>2015-06-27T08:30:14Z</time>
      </trkpt>
      <trkpt lat="45.40614" lon="6.18817">
        <ele>1876.84</ele>
        <time>2015-06-27T08:30:43Z</time>
      </trkpt>
      <trkpt lat="45.40602" lon="6.18837">
        <ele>1881.38</ele>
        <time>2015-06-27T08:31:11Z</time>
      </trkpt>
      <trkpt lat="45.40586" lon="6.1885">
        <ele>1882.88</ele>
        <time>2015-06-27T08:31:31Z</time>
      </trkpt>
      <trkpt lat="45.40569" lon="6.18862">
        <ele>1888.62</ele>
        <time>2015-06-27T08:31:56Z</time>
      </trkpt>
      <trkpt lat="45.40552" lon="6.18872">
        <ele>1896.31</ele>
        <time>2015-06-27T08:32:27Z</time>
      </trkpt>
      <trkpt lat="45.40536" lon="6.18886">
        <ele>1900.87</ele>
        <time>2015-06-27T08:32:51Z</time>
      </trkpt>
      <trkpt lat="45.40521" lon="6.189">
        <ele>1904.87</ele>
        <time>2015-06-27T08:33:14Z</time>
      </trkpt>
      <trkpt lat="45.40503" lon="6.18907">
        <ele>1907.63</ele>
        <time>2015-06-27T08:33:33Z</time>
      </trkpt>
      <trkpt lat="45.40485" lon="6.18913">
        <ele>1911.8</ele>
        <time>2015-06-27T08:33:57Z</time>
      </trkpt>
      <trkpt lat="45.40468" lon="6.18926">
        <ele>1916.5</ele>
        <time>2015-06-27T08:34:31Z</time>
      </trkpt>
      <trkpt lat="45.40453" lon="6.18943">
        <ele>1915.88</ele>
        <time>2015-06-27T08:34:50Z</time>
      </trkpt>
      <trkpt lat="45.40438" lon="6.18957">
        <ele>1922.85</ele>
        <time>2015-06-27T08:35:27Z</time>
      </trkpt>
      <trkpt lat="45.40419" lon="6.1896">
        <ele>1921.71</ele>
        <time>2015-06-27T08:35:47Z</time>
      </trkpt>
      <trkpt lat="45.40401" lon="6.18964">
        <ele>1926.63</ele>
        <time>2015-06-27T08:36:21Z</time>
      </trkpt>
      <trkpt lat="45.40384" lon="6.18973">
        <ele>1927.93</ele>
        <time>2015-06-27T08:36:45Z</time>
      </trkpt>
      <trkpt lat="45.40367" lon="6.18982">
        <ele>1930.88</ele>
        <time>2015-06-27T08:37:09Z</time>
      </trkpt>
      <trkpt lat="45.4035" lon="6.18991">
        <ele>1930.74</ele>
        <time>2015-06-27T08:37:28Z</time>
      </trkpt>
      <trkpt lat="45.40336" lon="6.19008">
        <ele>1936.82</ele>
        <time>2015-06-27T08:38:00Z</time>
      </trkpt>
      <trkpt lat="45.40319" lon="6.19016">
        <ele>1939.87</ele>
        <time>2015-06-27T08:38:30Z</time>
      </trkpt>
      <trkpt lat="45.40301" lon="6.19024">
        <ele>1941.87</ele>
        <time>2015-06-27T08:39:04Z</time>
      </trkpt>
      <trkpt lat="45.40284" lon="6.19034">
        <ele>1943.88</ele>
        <time>2015-06-27T08:39:36Z</time>
      </trkpt>
      <trkpt lat="45.40268" lon="6.19046">
        <ele>1946.83</ele>
        <time>2015-06-27T08:40:04Z</time>
      </trkpt>
      <trkpt lat="45.40253" lon="6.19061">
        <ele>1948.25</ele>
        <time>2015-06-27T08:40:31Z</time>
      </trkpt>
      <trkpt lat="45.4024" lon="6.1908">
        <ele>1951.88</ele>
        <time>2015-06-27T08:41:06Z</time>
      </trkpt>
      <trkpt lat="45.40231" lon="6.19102">
        <ele>1958.75</ele>
        <time>2015-06-27T08:41:41Z</time>
      </trkpt>
      <trkpt lat="45.40218" lon="6.19122">
        <ele>1963.38</ele>
        <time>2015-06-27T08:42:13Z</time>
      </trkpt>
      <trkpt lat="45.40208" lon="6.19143">
        <ele>1969.82</ele>
        <time>2015-06-27T08:42:46Z</time>
      </trkpt>
      <trkpt lat="45.40197" lon="6.19164">
        <ele>1977.59</ele>
        <time>2015-06-27T08:43:22Z</time>
      </trkpt>
      <trkpt lat="45.40192" lon="6.19188">
        <ele>1987.64</ele>
        <time>2015-06-27T08:44:06Z</time>
      </trkpt>
      <trkpt lat="45.40178" lon="6.19206">
        <ele>1994.81</ele>
        <time>2015-06-27T08:44:36Z</time>
      </trkpt>
      <trkpt lat="45.40163" lon="6.19223">
        <ele>1995.78</ele>
        <time>2015-06-27T08:45:05Z</time>
      </trkpt>
      <trkpt lat="45.40145" lon="6.19227">
        <ele>1994.3</ele>
        <time>2015-06-27T08:45:31Z</time>
      </trkpt>
      <trkpt lat="45.4013" lon="6.19241">
        <ele>1995.87</ele>
        <time>2015-06-27T08:45:58Z</time>
      </trkpt>
      <trkpt lat="45.40115" lon="6.19257">
        <ele>1991.01</ele>
        <time>2015-06-27T08:46:20Z</time>
      </trkpt>
      <trkpt lat="45.40104" lon="6.19277">
        <ele>1987.95</ele>
        <time>2015-06-27T08:46:39Z</time>
      </trkpt>
      <trkpt lat="45.40091" lon="6.19297">
        <ele>1983.94</ele>
        <time>2015-06-27T08:46:57Z</time>
      </trkpt>
      <trkpt lat="45.40079" lon="6.19317">
        <ele>1982.89</ele>
        <time>2015-06-27T08:47:14Z</time>
      </trkpt>
      <trkpt lat="45.40073" lon="6.19341">
        <ele>1977.02</ele>
        <time>2015-06-27T08:47:37Z</time>
      </trkpt>
      <trkpt lat="45.40066" lon="6.19365">
        <ele>1974.94</ele>
        <time>2015-06-27T08:47:51Z</time>
      </trkpt>
      <trkpt lat="45.4006" lon="6.1939">
        <ele>1976.86</ele>
        <time>2015-06-27T08:48:13Z</time>
      </trkpt>
      <trkpt lat="45.40051" lon="6.19414">
        <ele>1978.37</ele>
        <time>2015-06-27T08:48:38Z</time>
      </trkpt>
      <trkpt lat="45.40037" lon="6.19431">
        <ele>1978.87</ele>
        <time>2015-06-27T08:48:56Z</time>
      </trkpt>
      <trkpt lat="45.40026" lon="6.19452">
        <ele>1979.5</ele>
        <time>2015-06-27T08:49:12Z</time>
      </trkpt>
      <trkpt lat="45.40024" lon="6.19479">
        <ele>1982.61</ele>
        <time>2015-06-27T08:49:37Z</time>
      </trkpt>
      <trkpt lat="45.40018" lon="6.19503">
        <ele>1985.35</ele>
        <time>2015-06-27T08:49:55Z</time>
      </trkpt>
      <trkpt lat="45.40011" lon="6.19528">
        <ele>1993.84</ele>
        <time>2015-06-27T08:50:20Z</time>
      </trkpt>
      <trkpt lat="45.40005" lon="6.19553">
        <ele>2003.71</ele>
        <time>2015-06-27T08:50:51Z</time>
      </trkpt>
      <trkpt lat="45.39997" lon="6.19577">
        <ele>2006.87</ele>
        <time>2015-06-27T08:51:18Z</time>
      </trkpt>
      <trkpt lat="45.39988" lon="6.19599">
        <ele>2016.98</ele>
        <time>2015-06-27T08:51:53Z</time>
      </trkpt>
      <trkpt lat="45.39979" lon="6.19622">
        <ele>2021.53</ele>
        <time>2015-06-27T08:52:18Z</time>
      </trkpt>
      <trkpt lat="45.39965" lon="6.1964">
        <ele>2027.91</ele>
        <time>2015-06-27T08:52:52Z</time>
      </trkpt>
      <trkpt lat="45.39955" lon="6.19662">
        <ele>2036.74</ele>
        <time>2015-06-27T08:53:31Z</time>
      </trkpt>
      <trkpt lat="45.39953" lon="6.19688">
        <ele>2046.37</ele>
        <time>2015-06-27T08:54:26Z</time>
      </trkpt>
      <trkpt lat="45.39962" lon="6.19711">
        <ele>2053.25</ele>
        <time>2015-06-27T08:55:02Z</time>
      </trkpt>
      <trkpt lat="45.3997" lon="6.19734">
        <ele>2054.76</ele>
        <time>2015-06-27T08:55:33Z</time>
      </trkpt>
      <trkpt lat="45.39979" lon="6.19757">
        <ele>2071.16</ele>
        <time>2015-06-27T08:56:26Z</time>
      </trkpt>
      <trkpt lat="45.3998" lon="6.19784">
        <ele>2078.89</ele>
        <time>2015-06-27T08:57:16Z</time>
      </trkpt>
      <trkpt lat="45.39973" lon="6.19808">
        <ele>2082.9</ele>
        <time>2015-06-27T08:57:46Z</time>
      </trkpt>
      <trkpt lat="45.39963" lon="6.1983">
        <ele>2088.87</ele>
        <time>2015-06-27T08:58:22Z</time>
      </trkpt>
      <trkpt lat="45.39952" lon="6.1985">
        <ele>2097.91</ele>
        <time>2015-06-27T08:59:00Z</time>
      </trkpt>
      <trkpt lat="45.39938" lon="6.19868">
        <ele>2102.22</ele>
        <time>2015-06-27T08:59:28Z</time>
      </trkpt>
      <trkpt lat="45.39927" lon="6.19888">
        <ele>2104.69</ele>
        <time>2015-06-27T08:59:52Z</time>
      </trkpt>
      <trkpt lat="45.39912" lon="6.19904">
        <ele>2112.72</ele>
        <time>2015-06-27T09:00:29Z</time>
      </trkpt>
      <trkpt lat="45.399" lon="6.19923">
        <ele>2115.56</ele>
        <time>2015-06-27T09:01:00Z</time>
      </trkpt>
      <trkpt lat="45.39886" lon="6.19939">
        <ele>2117.88</ele>
        <time>2015-06-27T09:01:26Z</time>
      </trkpt>
      <trkpt lat="45.39869" lon="6.19949">
        <ele>2119.99</ele>
        <time>2015-06-27T09:01:53Z</time>
      </trkpt>
      <trkpt lat="45.39852" lon="6.19959">
        <ele>2127.23</ele>
        <time>2015-06-27T09:02:26Z</time>
      </trkpt>
      <trkpt lat="45.39835" lon="6.19967">
        <ele>2132.1</ele>
        <time>2015-06-27T09:02:54Z</time>
      </trkpt>
      <trkpt lat="45.39817" lon="6.1997">
        <ele>2145.36</ele>
        <time>2015-06-27T09:03:41Z</time>
      </trkpt>
      <trkpt lat="45.39799" lon="6.19972">
        <ele>2159.3</ele>
        <time>2015-06-27T09:04:33Z</time>
      </trkpt>
      <trkpt lat="45.39781" lon="6.19968">
        <ele>2164.85</ele>
        <time>2015-06-27T09:05:17Z</time>
      </trkpt>
      <trkpt lat="45.39764" lon="6.19956">
        <ele>2173.75</ele>
        <time>2015-06-27T09:05:57Z</time>
      </trkpt>
      <trkpt lat="45.39747" lon="6.1995">
        <ele>2190.74</ele>
        <time>2015-06-27T09:07:17Z</time>
      </trkpt>
      <trkpt lat="45.39732" lon="6.19934">
        <ele>2195.84</ele>
        <time>2015-06-27T09:08:00Z</time>
      </trkpt>
      <trkpt lat="45.39718" lon="6.19918">
        <ele>2204.33</ele>
        <time>2015-06-27T09:08:48Z</time>
      </trkpt>
      <trkpt lat="45.39704" lon="6.19901">
        <ele>2213.74</ele>
        <time>2015-06-27T09:09:27Z</time>
      </trkpt>
      <trkpt lat="45.39696" lon="6.19878">
        <ele>2221.86</ele>
        <time>2015-06-27T09:10:09Z</time>
      </trkpt>
      <trkpt lat="45.39682" lon="6.19861">
        <ele>2230.91</ele>
        <time>2015-06-27T09:15:07Z</time>
      </trkpt>
      <trkpt lat="45.39687" lon="6.19886">
        <ele>2229.77</ele>
        <time>2015-06-27T09:18:20Z</time>
      </trkpt>
      <trkpt lat="45.39693" lon="6.19911">
        <ele>2226.04</ele>
        <time>2015-06-27T09:18:54Z</time>
      </trkpt>
      <trkpt lat="45.39701" lon="6.19935">
        <ele>2223.39</ele>
        <time>2015-06-27T09:19:18Z</time>
      </trkpt>
      <trkpt lat="45.39717" lon="6.19949">
        <ele>2215.2</ele>
        <time>2015-06-27T09:19:44Z</time>
      </trkpt>
      <trkpt lat="45.39729" lon="6.19969">
        <ele>2209.41</ele>
        <time>2015-06-27T09:20:08Z</time>
      </trkpt>
      <trkpt lat="45.39744" lon="6.19984">
        <ele>2204.52</ele>
        <time>2015-06-27T09:20:33Z</time>
      </trkpt>
      <trkpt lat="45.39761" lon="6.19995">
        <ele>2197.46</ele>
        <time>2015-06-27T09:20:56Z</time>
      </trkpt>
      <trkpt lat="45.39777" lon="6.20007">
        <ele>2195.73</ele>
        <time>2015-06-27T09:21:17Z</time>
      </trkpt>
      <trkpt lat="45.39794" lon="6.20018">
        <ele>2192.91</ele>
        <time>2015-06-27T09:22:02Z</time>
      </trkpt>
      <trkpt lat="45.39812" lon="6.20016">
        <ele>2195.3</ele>
        <time>2015-06-27T09:22:26Z</time>
      </trkpt>
      <trkpt lat="45.39831" lon="6.20013">
        <ele>2191.99</ele>
        <time>2015-06-27T09:23:07Z</time>
      </trkpt>
      <trkpt lat="45.39849" lon="6.20012">
        <ele>2184.5</ele>
        <time>2015-06-27T09:23:38Z</time>
      </trkpt>
      <trkpt lat="45.39867" lon="6.20012">
        <ele>2168.62</ele>
        <time>2015-06-27T09:26:06Z</time>
      </trkpt>
      <trkpt lat="45.39886" lon="6.20015">
        <ele>2163.13</ele>
        <time>2015-06-27T09:26:51Z</time>
      </trkpt>
      <trkpt lat="45.39904" lon="6.20014">
        <ele>2160.39</ele>
        <time>2015-06-27T09:27:21Z</time>
      </trkpt>
      <trkpt lat="45.39922" lon="6.20012">
        <ele>2160.75</ele>
        <time>2015-06-27T09:27:45Z</time>
      </trkpt>
      <trkpt lat="45.3994" lon="6.20014">
        <ele>2163.74</ele>
        <time>2015-06-27T09:28:05Z</time>
      </trkpt>
      <trkpt lat="45.39956" lon="6.20027">
        <ele>2172.72</ele>
        <time>2015-06-27T09:29:41Z</time>
      </trkpt>
      <trkpt lat="45.39967" lon="6.20047">
        <ele>2165.91</ele>
        <time>2015-06-27T09:30:36Z</time>
      </trkpt>
      <trkpt lat="45.39976" lon="6.2007">
        <ele>2165.14</ele>
        <time>2015-06-27T09:30:57Z</time>
      </trkpt>
      <trkpt lat="45.39982" lon="6.20095">
        <ele>2159.02</ele>
        <time>2015-06-27T09:31:36Z</time>
      </trkpt>
      <trkpt lat="45.3999" lon="6.2012">
        <ele>2155.97</ele>
        <time>2015-06-27T09:32:17Z</time>
      </trkpt>
      <trkpt lat="45.40002" lon="6.2014">
        <ele>2151.13</ele>
        <time>2015-06-27T09:32:37Z</time>
      </trkpt>
      <trkpt lat="45.40005" lon="6.20167">
        <ele>2147.02</ele>
        <time>2015-06-27T09:32:56Z</time>
      </trkpt>
      <trkpt lat="45.40015" lon="6.20189">
        <ele>2143.88</ele>
        <time>2015-06-27T09:33:13Z</time>
      </trkpt>
      <trkpt lat="45.40033" lon="6.20182">
        <ele>2141.89</ele>
        <time>2015-06-27T09:33:32Z</time>
      </trkpt>
      <trkpt lat="45.4005" lon="6.20171">
        <ele>2138</ele>
        <time>2015-06-27T09:33:49Z</time>
      </trkpt>
      <trkpt lat="45.40037" lon="6.20188">
        <ele>2139.88</ele>
        <time>2015-06-27T09:35:13Z</time>
      </trkpt>
      <trkpt lat="45.40022" lon="6.20203">
        <ele>2141.88</ele>
        <time>2015-06-27T09:35:34Z</time>
      </trkpt>
      <trkpt lat="45.40007" lon="6.20219">
        <ele>2136.96</ele>
        <time>2015-06-27T09:36:24Z</time>
      </trkpt>
      <trkpt lat="45.3999" lon="6.20227">
        <ele>2130.41</ele>
        <time>2015-06-27T09:36:50Z</time>
      </trkpt>
      <trkpt lat="45.39976" lon="6.20244">
        <ele>2121.07</ele>
        <time>2015-06-27T09:37:25Z</time>
      </trkpt>
      <trkpt lat="45.39968" lon="6.20268">
        <ele>2114.76</ele>
        <time>2015-06-27T09:37:50Z</time>
      </trkpt>
      <trkpt lat="45.39953" lon="6.20281">
        <ele>2108.2</ele>
        <time>2015-06-27T09:38:27Z</time>
      </trkpt>
      <trkpt lat="45.39938" lon="6.20297">
        <ele>2101.91</ele>
        <time>2015-06-27T09:38:46Z</time>
      </trkpt>
      <trkpt lat="45.39925" lon="6.20314">
        <ele>2099.89</ele>
        <time>2015-06-27T09:39:02Z</time>
      </trkpt>
      <trkpt lat="45.39909" lon="6.20329">
        <ele>2096.44</ele>
        <time>2015-06-27T09:39:26Z</time>
      </trkpt>
      <trkpt lat="45.39891" lon="6.20333">
        <ele>2091.04</ele>
        <time>2015-06-27T09:39:49Z</time>
      </trkpt>
      <trkpt lat="45.39875" lon="6.2032">
        <ele>2088.94</ele>
        <time>2015-06-27T09:40:18Z</time>
      </trkpt>
      <trkpt lat="45.39857" lon="6.20324">
        <ele>2088.38</ele>
        <time>2015-06-27T09:40:43Z</time>
      </trkpt>
      <trkpt lat="45.39846" lon="6.20346">
        <ele>2084</ele>
        <time>2015-06-27T09:41:17Z</time>
      </trkpt>
      <trkpt lat="45.39843" lon="6.20371">
        <ele>2084.37</ele>
        <time>2015-06-27T09:41:50Z</time>
      </trkpt>
      <trkpt lat="45.39846" lon="6.20398">
        <ele>2084.88</ele>
        <time>2015-06-27T09:42:17Z</time>
      </trkpt>
      <trkpt lat="45.39854" lon="6.20421">
        <ele>2084.92</ele>
        <time>2015-06-27T09:42:36Z</time>
      </trkpt>
      <trkpt lat="45.39866" lon="6.2044">
        <ele>2081.13</ele>
        <time>2015-06-27T09:42:55Z</time>
      </trkpt>
      <trkpt lat="45.39883" lon="6.20452">
        <ele>2077.73</ele>
        <time>2015-06-27T09:43:23Z</time>
      </trkpt>
      <trkpt lat="45.39896" lon="6.2047">
        <ele>2072.58</ele>
        <time>2015-06-27T09:43:44Z</time>
      </trkpt>
      <trkpt lat="45.39911" lon="6.20487">
        <ele>2068.85</ele>
        <time>2015-06-27T09:44:04Z</time>
      </trkpt>
      <trkpt lat="45.39919" lon="6.20511">
        <ele>2059.92</ele>
        <time>2015-06-27T09:44:35Z</time>
      </trkpt>
      <trkpt lat="45.39935" lon="6.20498">
        <ele>2050.52</ele>
        <time>2015-06-27T09:45:10Z</time>
      </trkpt>
      <trkpt lat="45.39947" lon="6.20517">
        <ele>2045.15</ele>
        <time>2015-06-27T09:45:32Z</time>
      </trkpt>
      <trkpt lat="45.39959" lon="6.20536">
        <ele>2036.46</ele>
        <time>2015-06-27T09:45:57Z</time>
      </trkpt>
      <trkpt lat="45.39971" lon="6.20555">
        <ele>2030.01</ele>
        <time>2015-06-27T09:46:22Z</time>
      </trkpt>
      <trkpt lat="45.39973" lon="6.20581">
        <ele>2025.39</ele>
        <time>2015-06-27T09:46:42Z</time>
      </trkpt>
      <trkpt lat="45.39978" lon="6.20606">
        <ele>2016.44</ele>
        <time>2015-06-27T09:47:14Z</time>
      </trkpt>
      <trkpt lat="45.39987" lon="6.20628">
        <ele>2010.9</ele>
        <time>2015-06-27T09:47:38Z</time>
      </trkpt>
      <trkpt lat="45.40005" lon="6.20631">
        <ele>2003.43</ele>
        <time>2015-06-27T09:48:05Z</time>
      </trkpt>
      <trkpt lat="45.40021" lon="6.20643">
        <ele>1998.94</ele>
        <time>2015-06-27T09:48:25Z</time>
      </trkpt>
      <trkpt lat="45.40039" lon="6.20652">
        <ele>1997.35</ele>
        <time>2015-06-27T09:48:43Z</time>
      </trkpt>
      <trkpt lat="45.40056" lon="6.20658">
        <ele>1991.39</ele>
        <time>2015-06-27T09:49:19Z</time>
      </trkpt>
      <trkpt lat="45.40075" lon="6.20655">
        <ele>1988.47</ele>
        <time>2015-06-27T09:50:11Z</time>
      </trkpt>
      <trkpt lat="45.40094" lon="6.20655">
        <ele>1993.8</ele>
        <time>2015-06-27T09:50:47Z</time>
      </trkpt>
      <trkpt lat="45.40112" lon="6.20651">
        <ele>1999.61</ele>
        <time>2015-06-27T09:51:22Z</time>
      </trkpt>
      <trkpt lat="45.40131" lon="6.20654">
        <ele>2001.88</ele>
        <time>2015-06-27T09:51:40Z</time>
      </trkpt>
      <trkpt lat="45.40145" lon="6.20637">
        <ele>2001.11</ele>
        <time>2015-06-27T09:52:03Z</time>
      </trkpt>
      <trkpt lat="45.40163" lon="6.20643">
        <ele>2007.97</ele>
        <time>2015-06-27T09:52:29Z</time>
      </trkpt>
      <trkpt lat="45.40181" lon="6.2064">
        <ele>2012.59</ele>
        <time>2015-06-27T09:52:54Z</time>
      </trkpt>
      <trkpt lat="45.40199" lon="6.20636">
        <ele>2019.41</ele>
        <time>2015-06-27T09:53:22Z</time>
      </trkpt>
      <trkpt lat="45.40216" lon="6.20627">
        <ele>2022.57</ele>
        <time>2015-06-27T09:54:00Z</time>
      </trkpt>
      <trkpt lat="45.4023" lon="6.2061">
        <ele>2032.61</ele>
        <time>2015-06-27T09:54:22Z</time>
      </trkpt>
      <trkpt lat="45.40244" lon="6.20593">
        <ele>2037.73</ele>
        <time>2015-06-27T09:54:54Z</time>
      </trkpt>
      <trkpt lat="45.40256" lon="6.20573">
        <ele>2046.89</ele>
        <time>2015-06-27T09:55:48Z</time>
      </trkpt>
      <trkpt lat="45.40272" lon="6.20561">
        <ele>2054</ele>
        <time>2015-06-27T09:56:25Z</time>
      </trkpt>
      <trkpt lat="45.40287" lon="6.20574">
        <ele>2053.82</ele>
        <time>2015-06-27T09:56:49Z</time>
      </trkpt>
      <trkpt lat="45.40298" lon="6.20596">
        <ele>2058.62</ele>
        <time>2015-06-27T09:57:12Z</time>
      </trkpt>
      <trkpt lat="45.40314" lon="6.20609">
        <ele>2052.67</ele>
        <time>2015-06-27T09:57:34Z</time>
      </trkpt>
      <trkpt lat="45.40328" lon="6.20626">
        <ele>2049.97</ele>
        <time>2015-06-27T09:57:58Z</time>
      </trkpt>
      <trkpt lat="45.40343" lon="6.2064">
        <ele>2051.34</ele>
        <time>2015-06-27T09:58:21Z</time>
      </trkpt>
      <trkpt lat="45.40359" lon="6.20653">
        <ele>2051.11</ele>
        <time>2015-06-27T09:58:43Z</time>
      </trkpt>
      <trkpt lat="45.40375" lon="6.20667">
        <ele>2054.66</ele>
        <time>2015-06-27T09:59:07Z</time>
      </trkpt>
      <trkpt lat="45.40383" lon="6.20691">
        <ele>2050.35</ele>
        <time>2015-06-27T09:59:27Z</time>
      </trkpt>
      <trkpt lat="45.40388" lon="6.20715">
        <ele>2054.86</ele>
        <time>2015-06-27T09:59:52Z</time>
      </trkpt>
      <trkpt lat="45.40395" lon="6.20739">
        <ele>2058.5</ele>
        <time>2015-06-27T10:00:12Z</time>
      </trkpt>
      <trkpt lat="45.40407" lon="6.2076">
        <ele>2057.62</ele>
        <time>2015-06-27T10:00:39Z</time>
      </trkpt>
      <trkpt lat="45.4042" lon="6.20779">
        <ele>2054.67</ele>
        <time>2015-06-27T10:01:00Z</time>
      </trkpt>
      <trkpt lat="45.40437" lon="6.2079">
        <ele>2052.5</ele>
        <time>2015-06-27T10:01:19Z</time>
      </trkpt>
      <trkpt lat="45.40453" lon="6.20804">
        <ele>2052.42</ele>
        <time>2015-06-27T10:01:41Z</time>
      </trkpt>
      <trkpt lat="45.40457" lon="6.2083">
        <ele>2054.87</ele>
        <time>2015-06-27T10:02:07Z</time>
      </trkpt>
      <trkpt lat="45.40456" lon="6.20855">
        <ele>2051.51</ele>
        <time>2015-06-27T10:04:44Z</time>
      </trkpt>
      <trkpt lat="45.40461" lon="6.20882">
        <ele>2046.97</ele>
        <time>2015-06-27T10:05:06Z</time>
      </trkpt>
      <trkpt lat="45.40462" lon="6.20908">
        <ele>2049.36</ele>
        <time>2015-06-27T10:05:25Z</time>
      </trkpt>
      <trkpt lat="45.40463" lon="6.20935">
        <ele>2056.25</ele>
        <time>2015-06-27T10:06:03Z</time>
      </trkpt>
      <trkpt lat="45.40478" lon="6.2095">
        <ele>2056.58</ele>
        <time>2015-06-27T10:06:48Z</time>
      </trkpt>
      <trkpt lat="45.40481" lon="6.20976">
        <ele>2061.7</ele>
        <time>2015-06-27T10:07:09Z</time>
      </trkpt>
      <trkpt lat="45.40489" lon="6.20999">
        <ele>2063.21</ele>
        <time>2015-06-27T10:07:29Z</time>
      </trkpt>
      <trkpt lat="45.405" lon="6.2102">
        <ele>2060.48</ele>
        <time>2015-06-27T10:07:52Z</time>
      </trkpt>
      <trkpt lat="45.40501" lon="6.21047">
        <ele>2066.04</ele>
        <time>2015-06-27T10:08:22Z</time>
      </trkpt>
      <trkpt lat="45.40515" lon="6.21063">
        <ele>2065.53</ele>
        <time>2015-06-27T10:08:51Z</time>
      </trkpt>
      <trkpt lat="45.40529" lon="6.2108">
        <ele>2069.06</ele>
        <time>2015-06-27T10:09:43Z</time>
      </trkpt>
      <trkpt lat="45.40539" lon="6.21102">
        <ele>2066.06</ele>
        <time>2015-06-27T10:10:15Z</time>
      </trkpt>
      <trkpt lat="45.4055" lon="6.21124">
        <ele>2071.28</ele>
        <time>2015-06-27T10:10:50Z</time>
      </trkpt>
      <trkpt lat="45.40557" lon="6.21149">
        <ele>2067.65</ele>
        <time>2015-06-27T10:11:02Z</time>
      </trkpt>
      <trkpt lat="45.40575" lon="6.21157">
        <ele>2073.8</ele>
        <time>2015-06-27T10:12:16Z</time>
      </trkpt>
      <trkpt lat="45.40582" lon="6.2118">
        <ele>2109.96</ele>
        <time>2015-06-27T10:14:01Z</time>
      </trkpt>
      <trkpt lat="45.40577" lon="6.21205">
        <ele>2131.69</ele>
        <time>2015-06-27T10:15:10Z</time>
      </trkpt>
      <trkpt lat="45.4059" lon="6.21223">
        <ele>2137.89</ele>
        <time>2015-06-27T10:18:57Z</time>
      </trkpt>
      <trkpt lat="45.40608" lon="6.21228">
        <ele>2133.96</ele>
        <time>2015-06-27T10:19:23Z</time>
      </trkpt>
      <trkpt lat="45.40622" lon="6.21245">
        <ele>2127.89</ele>
        <time>2015-06-27T10:19:58Z</time>
      </trkpt>
      <trkpt lat="45.40635" lon="6.21262">
        <ele>2120.01</ele>
        <time>2015-06-27T10:20:34Z</time>
      </trkpt>
      <trkpt lat="45.40653" lon="6.21269">
        <ele>2115.37</ele>
        <time>2015-06-27T10:21:07Z</time>
      </trkpt>
      <trkpt lat="45.40645" lon="6.21292">
        <ele>2107.35</ele>
        <time>2015-06-27T10:21:35Z</time>
      </trkpt>
      <trkpt lat="45.40629" lon="6.21304">
        <ele>2085.33</ele>
        <time>2015-06-27T10:22:08Z</time>
      </trkpt>
      <trkpt lat="45.4062" lon="6.21327">
        <ele>2077.94</ele>
        <time>2015-06-27T10:22:30Z</time>
      </trkpt>
      <trkpt lat="45.40622" lon="6.21353">
        <ele>2076.82</ele>
        <time>2015-06-27T10:23:14Z</time>
      </trkpt>
      <trkpt lat="45.40624" lon="6.21379">
        <ele>2076.33</ele>
        <time>2015-06-27T10:23:47Z</time>
      </trkpt>
      <trkpt lat="45.4064" lon="6.21394">
        <ele>2070.65</ele>
        <time>2015-06-27T10:24:49Z</time>
      </trkpt>
      <trkpt lat="45.40653" lon="6.21414">
        <ele>2069.66</ele>
        <time>2015-06-27T10:25:08Z</time>
      </trkpt>
      <trkpt lat="45.40662" lon="6.21437">
        <ele>2064.79</ele>
        <time>2015-06-27T10:25:31Z</time>
      </trkpt>
      <trkpt lat="45.40674" lon="6.21457">
        <ele>2056.99</ele>
        <time>2015-06-27T10:26:05Z</time>
      </trkpt>
      <trkpt lat="45.4068" lon="6.21482">
        <ele>2049.52</ele>
        <time>2015-06-27T10:26:27Z</time>
      </trkpt>
      <trkpt lat="45.40688" lon="6.21505">
        <ele>2046.92</ele>
        <time>2015-06-27T10:26:51Z</time>
      </trkpt>
      <trkpt lat="45.40699" lon="6.21527">
        <ele>2041.91</ele>
        <time>2015-06-27T10:27:17Z</time>
      </trkpt>
      <trkpt lat="45.40705" lon="6.21551">
        <ele>2033.4</ele>
        <time>2015-06-27T10:27:44Z</time>
      </trkpt>
      <trkpt lat="45.40709" lon="6.21577">
        <ele>2028</ele>
        <time>2015-06-27T10:28:05Z</time>
      </trkpt>
      <trkpt lat="45.40712" lon="6.21603">
        <ele>2026.81</ele>
        <time>2015-06-27T10:28:40Z</time>
      </trkpt>
      <trkpt lat="45.40724" lon="6.21623">
        <ele>2019.81</ele>
        <time>2015-06-27T10:29:01Z</time>
      </trkpt>
      <trkpt lat="45.40737" lon="6.21643">
        <ele>2016.16</ele>
        <time>2015-06-27T10:29:17Z</time>
      </trkpt>
      <trkpt lat="45.4075" lon="6.21661">
        <ele>2017.74</ele>
        <time>2015-06-27T10:29:33Z</time>
      </trkpt>
      <trkpt lat="45.40766" lon="6.21676">
        <ele>2018.89</ele>
        <time>2015-06-27T10:29:54Z</time>
      </trkpt>
      <trkpt lat="45.40784" lon="6.21681">
        <ele>2016</ele>
        <time>2015-06-27T10:30:26Z</time>
      </trkpt>
      <trkpt lat="45.40802" lon="6.21683">
        <ele>2009.16</ele>
        <time>2015-06-27T10:30:56Z</time>
      </trkpt>
      <trkpt lat="45.4081" lon="6.21706">
        <ele>2002.38</ele>
        <time>2015-06-27T10:31:28Z</time>
      </trkpt>
      <trkpt lat="45.40815" lon="6.21732">
        <ele>2002.38</ele>
        <time>2015-06-27T10:31:53Z</time>
      </trkpt>
      <trkpt lat="45.40822" lon="6.21757">
        <ele>1997.02</ele>
        <time>2015-06-27T10:32:16Z</time>
      </trkpt>
      <trkpt lat="45.40833" lon="6.21777">
        <ele>1990.45</ele>
        <time>2015-06-27T10:32:38Z</time>
      </trkpt>
      <trkpt lat="45.40829" lon="6.21802">
        <ele>1981.38</ele>
        <time>2015-06-27T10:33:16Z</time>
      </trkpt>
      <trkpt lat="45.40834" lon="6.21827">
        <ele>1979.89</ele>
        <time>2015-06-27T10:33:33Z</time>
      </trkpt>
      <trkpt lat="45.40842" lon="6.2185">
        <ele>1976.89</ele>
        <time>2015-06-27T10:34:00Z</time>
      </trkpt>
      <trkpt lat="45.40851" lon="6.21873">
        <ele>1970.89</ele>
        <time>2015-06-27T10:34:54Z</time>
      </trkpt>
      <trkpt lat="45.40861" lon="6.21895">
        <ele>1967.88</ele>
        <time>2015-06-27T10:35:19Z</time>
      </trkpt>
      <trkpt lat="45.40867" lon="6.21919">
        <ele>1967.88</ele>
        <time>2015-06-27T10:35:50Z</time>
      </trkpt>
      <trkpt lat="45.40869" lon="6.21945">
        <ele>1967.14</ele>
        <time>2015-06-27T10:36:16Z</time>
      </trkpt>
      <trkpt lat="45.40875" lon="6.21971">
        <ele>1963.25</ele>
        <time>2015-06-27T10:36:44Z</time>
      </trkpt>
      <trkpt lat="45.40882" lon="6.21996">
        <ele>1960.13</ele>
        <time>2015-06-27T10:37:13Z</time>
      </trkpt>
      <trkpt lat="45.40894" lon="6.22017">
        <ele>1960.17</ele>
        <time>2015-06-27T10:37:33Z</time>
      </trkpt>
      <trkpt lat="45.4091" lon="6.22029">
        <ele>1960.88</ele>
        <time>2015-06-27T10:37:54Z</time>
      </trkpt>
      <trkpt lat="45.4092" lon="6.2205">
        <ele>1956.88</ele>
        <time>2015-06-27T10:38:26Z</time>
      </trkpt>
      <trkpt lat="45.40937" lon="6.22061">
        <ele>1956.87</ele>
        <time>2015-06-27T10:38:53Z</time>
      </trkpt>
      <trkpt lat="45.40955" lon="6.22059">
        <ele>1956.5</ele>
        <time>2015-06-27T10:39:15Z</time>
      </trkpt>
      <trkpt lat="45.40972" lon="6.22069">
        <ele>1957.63</ele>
        <time>2015-06-27T10:39:33Z</time>
      </trkpt>
      <trkpt lat="45.4099" lon="6.22069">
        <ele>1954.89</ele>
        <time>2015-06-27T10:39:55Z</time>
      </trkpt>
      <trkpt lat="45.41005" lon="6.22084">
        <ele>1950.88</ele>
        <time>2015-06-27T10:40:26Z</time>
      </trkpt>
      <trkpt lat="45.41021" lon="6.22097">
        <ele>1948.82</ele>
        <time>2015-06-27T10:41:33Z</time>
      </trkpt>
      <trkpt lat="45.41039" lon="6.22091">
        <ele>1947.92</ele>
        <time>2015-06-27T10:41:59Z</time>
      </trkpt>
      <trkpt lat="45.41057" lon="6.22086">
        <ele>1946.52</ele>
        <time>2015-06-27T10:42:14Z</time>
      </trkpt>
      <trkpt lat="45.41075" lon="6.22077">
        <ele>1943.16</ele>
        <time>2015-06-27T10:42:39Z</time>
      </trkpt>
      <trkpt lat="45.4109" lon="6.22092">
        <ele>1935.42</ele>
        <time>2015-06-27T10:43:06Z</time>
      </trkpt>
      <trkpt lat="45.41108" lon="6.22099">
        <ele>1930.12</ele>
        <time>2015-06-27T10:43:27Z</time>
      </trkpt>
      <trkpt lat="45.41112" lon="6.22125">
        <ele>1920.95</ele>
        <time>2015-06-27T10:44:02Z</time>
      </trkpt>
      <trkpt lat="45.41114" lon="6.2215">
        <ele>1919.9</ele>
        <time>2015-06-27T10:44:22Z</time>
      </trkpt>
      <trkpt lat="45.41113" lon="6.22176">
        <ele>1917.89</ele>
        <time>2015-06-27T10:44:45Z</time>
      </trkpt>
      <trkpt lat="45.41112" lon="6.22203">
        <ele>1917.88</ele>
        <time>2015-06-27T10:45:12Z</time>
      </trkpt>
      <trkpt lat="45.41115" lon="6.22229">
        <ele>1915.95</ele>
        <time>2015-06-27T10:45:39Z</time>
      </trkpt>
      <trkpt lat="45.41116" lon="6.22255">
        <ele>1916.72</ele>
        <time>2015-06-27T10:46:00Z</time>
      </trkpt>
      <trkpt lat="45.41112" lon="6.22281">
        <ele>1920.84</ele>
        <time>2015-06-27T10:46:21Z</time>
      </trkpt>
      <trkpt lat="45.4111" lon="6.22306">
        <ele>1919.9</ele>
        <time>2015-06-27T10:46:49Z</time>
      </trkpt>
      <trkpt lat="45.41111" lon="6.22332">
        <ele>1918.78</ele>
        <time>2015-06-27T10:47:10Z</time>
      </trkpt>
      <trkpt lat="45.41119" lon="6.22355">
        <ele>1912.5</ele>
        <time>2015-06-27T10:47:46Z</time>
      </trkpt>
      <trkpt lat="45.41137" lon="6.22359">
        <ele>1911.99</ele>
        <time>2015-06-27T10:48:25Z</time>
      </trkpt>
      <trkpt lat="45.41153" lon="6.22346">
        <ele>1917.83</ele>
        <time>2015-06-27T10:48:58Z</time>
      </trkpt>
      <trkpt lat="45.41167" lon="6.2233">
        <ele>1923.98</ele>
        <time>2015-06-27T10:49:30Z</time>
      </trkpt>
      <trkpt lat="45.41181" lon="6.22313">
        <ele>1933.83</ele>
        <time>2015-06-27T10:50:25Z</time>
      </trkpt>
      <trkpt lat="45.41186" lon="6.22288">
        <ele>1934.9</ele>
        <time>2015-06-27T10:50:50Z</time>
      </trkpt>
      <trkpt lat="45.41197" lon="6.22267">
        <ele>1935.85</ele>
        <time>2015-06-27T10:51:14Z</time>
      </trkpt>
      <trkpt lat="45.41201" lon="6.22242">
        <ele>1938.86</ele>
        <time>2015-06-27T10:51:37Z</time>
      </trkpt>
      <trkpt lat="45.41212" lon="6.22221">
        <ele>1944.9</ele>
        <time>2015-06-27T10:52:04Z</time>
      </trkpt>
      <trkpt lat="45.41227" lon="6.22207">
        <ele>1950.93</ele>
        <time>2015-06-27T10:52:47Z</time>
      </trkpt>
      <trkpt lat="45.41237" lon="6.22229">
        <ele>1946.95</ele>
        <time>2015-06-27T10:54:08Z</time>
      </trkpt>
      <trkpt lat="45.41255" lon="6.22224">
        <ele>1937.72</ele>
        <time>2015-06-27T10:54:44Z</time>
      </trkpt>
      <trkpt lat="45.41269" lon="6.22242">
        <ele>1930.66</ele>
        <time>2015-06-27T10:55:19Z</time>
      </trkpt>
      <trkpt lat="45.41278" lon="6.22264">
        <ele>1921.58</ele>
        <time>2015-06-27T10:55:45Z</time>
      </trkpt>
      <trkpt lat="45.41285" lon="6.22288">
        <ele>1916.45</ele>
        <time>2015-06-27T10:56:07Z</time>
      </trkpt>
      <trkpt lat="45.4129" lon="6.22314">
        <ele>1913.88</ele>
        <time>2015-06-27T10:56:25Z</time>
      </trkpt>
      <trkpt lat="45.41293" lon="6.2234">
        <ele>1905.13</ele>
        <time>2015-06-27T10:56:54Z</time>
      </trkpt>
      <trkpt lat="45.41301" lon="6.22363">
        <ele>1898.73</ele>
        <time>2015-06-27T10:57:39Z</time>
      </trkpt>
      <trkpt lat="45.41298" lon="6.22388">
        <ele>1897.94</ele>
        <time>2015-06-27T10:57:57Z</time>
      </trkpt>
      <trkpt lat="45.41306" lon="6.22412">
        <ele>1892</ele>
        <time>2015-06-27T10:58:25Z</time>
      </trkpt>
      <trkpt lat="45.41321" lon="6.22396">
        <ele>1882.41</ele>
        <time>2015-06-27T10:58:51Z</time>
      </trkpt>
      <trkpt lat="45.41328" lon="6.22421">
        <ele>1878.57</ele>
        <time>2015-06-27T10:59:20Z</time>
      </trkpt>
      <trkpt lat="45.41338" lon="6.22441">
        <ele>1870.69</ele>
        <time>2015-06-27T10:59:55Z</time>
      </trkpt>
      <trkpt lat="45.41352" lon="6.22458">
        <ele>1861.04</ele>
        <time>2015-06-27T11:00:28Z</time>
      </trkpt>
      <trkpt lat="45.4137" lon="6.22452">
        <ele>1847.94</ele>
        <time>2015-06-27T11:01:22Z</time>
      </trkpt>
      <trkpt lat="45.41376" lon="6.22476">
        <ele>1842.48</ele>
        <time>2015-06-27T11:02:17Z</time>
      </trkpt>
      <trkpt lat="45.41385" lon="6.225">
        <ele>1834.33</ele>
        <time>2015-06-27T11:02:50Z</time>
      </trkpt>
      <trkpt lat="45.41395" lon="6.22521">
        <ele>1828.81</ele>
        <time>2015-06-27T11:03:17Z</time>
      </trkpt>
      <trkpt lat="45.41405" lon="6.22543">
        <ele>1825.76</ele>
        <time>2015-06-27T11:03:41Z</time>
      </trkpt>
      <trkpt lat="45.41411" lon="6.22567">
        <ele>1821.21</ele>
        <time>2015-06-27T11:04:03Z</time>
      </trkpt>
      <trkpt lat="45.41412" lon="6.22594">
        <ele>1820.96</ele>
        <time>2015-06-27T11:04:22Z</time>
      </trkpt>
      <trkpt lat="45.41417" lon="6.22619">
        <ele>1813.68</ele>
        <time>2015-06-27T11:04:43Z</time>
      </trkpt>
      <trkpt lat="45.41426" lon="6.22643">
        <ele>1812.39</ele>
        <time>2015-06-27T11:05:00Z</time>
      </trkpt>
      <trkpt lat="45.41442" lon="6.22657">
        <ele>1807.88</ele>
        <time>2015-06-27T11:05:19Z</time>
      </trkpt>
      <trkpt lat="45.41458" lon="6.22669">
        <ele>1808.76</ele>
        <time>2015-06-27T11:05:33Z</time>
      </trkpt>
      <trkpt lat="45.41475" lon="6.22676">
        <ele>1805.92</ele>
        <time>2015-06-27T11:05:55Z</time>
      </trkpt>
      <trkpt lat="45.41493" lon="6.22673">
        <ele>1802.01</ele>
        <time>2015-06-27T11:06:13Z</time>
      </trkpt>
      <trkpt lat="45.41507" lon="6.2269">
        <ele>1797.9</ele>
        <time>2015-06-27T11:06:35Z</time>
      </trkpt>
      <trkpt lat="45.41519" lon="6.22711">
        <ele>1791.51</ele>
        <time>2015-06-27T11:06:57Z</time>
      </trkpt>
      <trkpt lat="45.41533" lon="6.2273">
        <ele>1784.9</ele>
        <time>2015-06-27T11:07:18Z</time>
      </trkpt>
      <trkpt lat="45.41544" lon="6.22751">
        <ele>1780.64</ele>
        <time>2015-06-27T11:07:42Z</time>
      </trkpt>
      <trkpt lat="45.41557" lon="6.22771">
        <ele>1776</ele>
        <time>2015-06-27T11:08:38Z</time>
      </trkpt>
      <trkpt lat="45.41566" lon="6.22793">
        <ele>1771.89</ele>
        <time>2015-06-27T11:09:00Z</time>
      </trkpt>
      <trkpt lat="45.41568" lon="6.22767">
        <ele>1769.88</ele>
        <time>2015-06-27T11:10:29Z</time>
      </trkpt>
      <trkpt lat="45.41558" lon="6.22745">
        <ele>1770.85</ele>
        <time>2015-06-27T11:11:38Z</time>
      </trkpt>
      <trkpt lat="45.41563" lon="6.2272">
        <ele>1774.13</ele>
        <time>2015-06-27T11:13:35Z</time>
      </trkpt>
      <trkpt lat="45.41554" lon="6.22697">
        <ele>1772.52</ele>
        <time>2015-06-27T11:17:50Z</time>
      </trkpt>
      <trkpt lat="45.41545" lon="6.22674">
        <ele>1778.36</ele>
        <time>2015-06-27T11:18:56Z</time>
      </trkpt>
      <trkpt lat="45.41544" lon="6.22649">
        <ele>1784.13</ele>
        <time>2015-06-27T11:21:50Z</time>
      </trkpt>
      <trkpt lat="45.4155" lon="6.22624">
        <ele>1782.88</ele>
        <time>2015-06-27T11:24:28Z</time>
      </trkpt>
      <trkpt lat="45.41543" lon="6.226">
        <ele>1784.39</ele>
        <time>2015-06-27T11:25:01Z</time>
      </trkpt>
      <trkpt lat="45.41541" lon="6.22575">
        <ele>1781.16</ele>
        <time>2015-06-27T11:26:09Z</time>
      </trkpt>
      <trkpt lat="45.41535" lon="6.2255">
        <ele>1780.12</ele>
        <time>2015-06-27T11:27:01Z</time>
      </trkpt>
      <trkpt lat="45.41551" lon="6.22539">
        <ele>1777.01</ele>
        <time>2015-06-27T11:28:24Z</time>
      </trkpt>
      <trkpt lat="45.41566" lon="6.22523">
        <ele>1777.25</ele>
        <time>2015-06-27T11:29:23Z</time>
      </trkpt>
      <trkpt lat="45.41579" lon="6.22504">
        <ele>1778.62</ele>
        <time>2015-06-27T11:29:59Z</time>
      </trkpt>
      <trkpt lat="45.41596" lon="6.22515">
        <ele>1777.91</ele>
        <time>2015-06-27T11:31:04Z</time>
      </trkpt>
      <trkpt lat="45.41614" lon="6.22512">
        <ele>1770.41</ele>
        <time>2015-06-27T11:32:31Z</time>
      </trkpt>
      <trkpt lat="45.41632" lon="6.22507">
        <ele>1776.24</ele>
        <time>2015-06-27T11:33:20Z</time>
      </trkpt>
      <trkpt lat="45.4165" lon="6.22503">
        <ele>1775.79</ele>
        <time>2015-06-27T11:34:24Z</time>
      </trkpt>
      <trkpt lat="45.41668" lon="6.22493">
        <ele>1778.44</ele>
        <time>2015-06-27T11:35:17Z</time>
      </trkpt>
      <trkpt lat="45.41685" lon="6.22486">
        <ele>1770.37</ele>
        <time>2015-06-27T11:36:25Z</time>
      </trkpt>
      <trkpt lat="45.41702" lon="6.22495">
        <ele>1783.89</ele>
        <time>2015-06-27T12:01:30Z</time>
      </trkpt>
      <trkpt lat="45.41719" lon="6.22483">
        <ele>1788.34</ele>
        <time>2015-06-27T12:02:42Z</time>
      </trkpt>
      <trkpt lat="45.41714" lon="6.22458">
        <ele>1798.79</ele>
        <time>2015-06-27T12:03:16Z</time>
      </trkpt>
      <trkpt lat="45.41707" lon="6.22434">
        <ele>1799.04</ele>
        <time>2015-06-27T12:03:48Z</time>
      </trkpt>
      <trkpt lat="45.41692" lon="6.22419">
        <ele>1815.2</ele>
        <time>2015-06-27T12:04:34Z</time>
      </trkpt>
      <trkpt lat="45.41687" lon="6.22394">
        <ele>1802.97</ele>
        <time>2015-06-27T12:04:56Z</time>
      </trkpt>
      <trkpt lat="45.41705" lon="6.22395">
        <ele>1823.13</ele>
        <time>2015-06-27T12:05:58Z</time>
      </trkpt>
      <trkpt lat="45.41722" lon="6.22403">
        <ele>1830.94</ele>
        <time>2015-06-27T12:06:40Z</time>
      </trkpt>
      <trkpt lat="45.41741" lon="6.2241">
        <ele>1832.63</ele>
        <time>2015-06-27T12:07:08Z</time>
      </trkpt>
      <trkpt lat="45.41739" lon="6.22384">
        <ele>1837.94</ele>
        <time>2015-06-27T12:08:51Z</time>
      </trkpt>
      <trkpt lat="45.41741" lon="6.22358">
        <ele>1851.95</ele>
        <time>2015-06-27T12:09:28Z</time>
      </trkpt>
      <trkpt lat="45.41758" lon="6.22352">
        <ele>1865.27</ele>
        <time>2015-06-27T12:10:50Z</time>
      </trkpt>
      <trkpt lat="45.41775" lon="6.2236">
        <ele>1873.23</ele>
        <time>2015-06-27T12:11:43Z</time>
      </trkpt>
      <trkpt lat="45.41792" lon="6.22372">
        <ele>1878.14</ele>
        <time>2015-06-27T12:12:15Z</time>
      </trkpt>
      <trkpt lat="45.41797" lon="6.22347">
        <ele>1881.63</ele>
        <time>2015-06-27T12:13:15Z</time>
      </trkpt>
      <trkpt lat="45.41791" lon="6.22322">
        <ele>1886.87</ele>
        <time>2015-06-27T12:13:52Z</time>
      </trkpt>
      <trkpt lat="45.41785" lon="6.22297">
        <ele>1892.62</ele>
        <time>2015-06-27T12:14:27Z</time>
      </trkpt>
      <trkpt lat="45.41803" lon="6.22306">
        <ele>1909.6</ele>
        <time>2015-06-27T12:15:26Z</time>
      </trkpt>
      <trkpt lat="45.41813" lon="6.22285">
        <ele>1917.44</ele>
        <time>2015-06-27T12:16:22Z</time>
      </trkpt>
      <trkpt lat="45.41802" lon="6.22263">
        <ele>1920.63</ele>
        <time>2015-06-27T12:16:59Z</time>
      </trkpt>
      <trkpt lat="45.41798" lon="6.22237">
        <ele>1926.38</ele>
        <time>2015-06-27T12:17:43Z</time>
      </trkpt>
      <trkpt lat="45.4179" lon="6.22213">
        <ele>1936.07</ele>
        <time>2015-06-27T12:18:17Z</time>
      </trkpt>
      <trkpt lat="45.41788" lon="6.22187">
        <ele>1940.91</ele>
        <time>2015-06-27T12:18:58Z</time>
      </trkpt>
      <trkpt lat="45.41777" lon="6.22165">
        <ele>1937.7</ele>
        <time>2015-06-27T12:19:18Z</time>
      </trkpt>
      <trkpt lat="45.41758" lon="6.22156">
        <ele>1945.37</ele>
        <time>2015-06-27T12:19:44Z</time>
      </trkpt>
      <trkpt lat="45.41741" lon="6.22149">
        <ele>1947.84</ele>
        <time>2015-06-27T12:20:11Z</time>
      </trkpt>
      <trkpt lat="45.41736" lon="6.22123">
        <ele>1961.33</ele>
        <time>2015-06-27T12:20:44Z</time>
      </trkpt>
      <trkpt lat="45.4173" lon="6.22099">
        <ele>1963.62</ele>
        <time>2015-06-27T12:21:12Z</time>
      </trkpt>
      <trkpt lat="45.41714" lon="6.22086">
        <ele>1964.54</ele>
        <time>2015-06-27T12:21:45Z</time>
      </trkpt>
      <trkpt lat="45.41702" lon="6.22066">
        <ele>1969.49</ele>
        <time>2015-06-27T12:22:11Z</time>
      </trkpt>
      <trkpt lat="45.41692" lon="6.22045">
        <ele>1976.47</ele>
        <time>2015-06-27T12:22:44Z</time>
      </trkpt>
      <trkpt lat="45.41695" lon="6.22019">
        <ele>1981.19</ele>
        <time>2015-06-27T12:23:29Z</time>
      </trkpt>
      <trkpt lat="45.41684" lon="6.21998">
        <ele>1986.16</ele>
        <time>2015-06-27T12:24:05Z</time>
      </trkpt>
      <trkpt lat="45.41668" lon="6.21986">
        <ele>1986.88</ele>
        <time>2015-06-27T12:24:41Z</time>
      </trkpt>
      <trkpt lat="45.41653" lon="6.21968">
        <ele>1989.7</ele>
        <time>2015-06-27T12:25:10Z</time>
      </trkpt>
      <trkpt lat="45.41671" lon="6.21957">
        <ele>1997.96</ele>
        <time>2015-06-27T12:25:58Z</time>
      </trkpt>
      <trkpt lat="45.4169" lon="6.21958">
        <ele>2005.9</ele>
        <time>2015-06-27T12:26:42Z</time>
      </trkpt>
      <trkpt lat="45.41707" lon="6.21951">
        <ele>2020.71</ele>
        <time>2015-06-27T12:27:39Z</time>
      </trkpt>
      <trkpt lat="45.41725" lon="6.2195">
        <ele>2025.61</ele>
        <time>2015-06-27T12:28:25Z</time>
      </trkpt>
      <trkpt lat="45.41743" lon="6.21958">
        <ele>2038.39</ele>
        <time>2015-06-27T12:29:14Z</time>
      </trkpt>
      <trkpt lat="45.41761" lon="6.2195">
        <ele>2042.75</ele>
        <time>2015-06-27T12:29:53Z</time>
      </trkpt>
      <trkpt lat="45.41779" lon="6.21952">
        <ele>2044.61</ele>
        <time>2015-06-27T12:30:22Z</time>
      </trkpt>
      <trkpt lat="45.41796" lon="6.21959">
        <ele>2052.36</ele>
        <time>2015-06-27T12:31:04Z</time>
      </trkpt>
      <trkpt lat="45.41813" lon="6.2195">
        <ele>2053.46</ele>
        <time>2015-06-27T12:31:43Z</time>
      </trkpt>
      <trkpt lat="45.41831" lon="6.21945">
        <ele>2062.37</ele>
        <time>2015-06-27T12:32:12Z</time>
      </trkpt>
      <trkpt lat="45.4185" lon="6.21943">
        <ele>2075.08</ele>
        <time>2015-06-27T12:32:52Z</time>
      </trkpt>
      <trkpt lat="45.41868" lon="6.21938">
        <ele>2086.86</ele>
        <time>2015-06-27T12:33:48Z</time>
      </trkpt>
      <trkpt lat="45.41884" lon="6.21925">
        <ele>2091.39</ele>
        <time>2015-06-27T12:34:23Z</time>
      </trkpt>
      <trkpt lat="45.41902" lon="6.21921">
        <ele>2091.49</ele>
        <time>2015-06-27T12:34:59Z</time>
      </trkpt>
      <trkpt lat="45.4192" lon="6.21916">
        <ele>2098.25</ele>
        <time>2015-06-27T12:36:00Z</time>
      </trkpt>
      <trkpt lat="45.41937" lon="6.21925">
        <ele>2105.6</ele>
        <time>2015-06-27T12:36:34Z</time>
      </trkpt>
      <trkpt lat="45.41954" lon="6.21935">
        <ele>2109.75</ele>
        <time>2015-06-27T12:37:04Z</time>
      </trkpt>
      <trkpt lat="45.41964" lon="6.21914">
        <ele>2119.6</ele>
        <time>2015-06-27T12:38:00Z</time>
      </trkpt>
      <trkpt lat="45.41964" lon="6.21888">
        <ele>2121.5</ele>
        <time>2015-06-27T12:38:31Z</time>
      </trkpt>
      <trkpt lat="45.41964" lon="6.21861">
        <ele>2127.89</ele>
        <time>2015-06-27T12:39:09Z</time>
      </trkpt>
      <trkpt lat="45.41978" lon="6.21844">
        <ele>2134.62</ele>
        <time>2015-06-27T12:39:50Z</time>
      </trkpt>
      <trkpt lat="45.41996" lon="6.21839">
        <ele>2133.14</ele>
        <time>2015-06-27T12:40:08Z</time>
      </trkpt>
      <trkpt lat="45.42013" lon="6.21829">
        <ele>2133.63</ele>
        <time>2015-06-27T12:40:28Z</time>
      </trkpt>
      <trkpt lat="45.42026" lon="6.21811">
        <ele>2138.84</ele>
        <time>2015-06-27T12:41:01Z</time>
      </trkpt>
      <trkpt lat="45.42045" lon="6.2181">
        <ele>2142.36</ele>
        <time>2015-06-27T12:41:26Z</time>
      </trkpt>
      <trkpt lat="45.42062" lon="6.21817">
        <ele>2150</ele>
        <time>2015-06-27T12:42:10Z</time>
      </trkpt>
      <trkpt lat="45.42067" lon="6.21792">
        <ele>2147.97</ele>
        <time>2015-06-27T12:42:53Z</time>
      </trkpt>
      <trkpt lat="45.42076" lon="6.2177">
        <ele>2156.74</ele>
        <time>2015-06-27T12:43:35Z</time>
      </trkpt>
      <trkpt lat="45.42085" lon="6.21747">
        <ele>2165.97</ele>
        <time>2015-06-27T12:44:24Z</time>
      </trkpt>
      <trkpt lat="45.42097" lon="6.21726">
        <ele>2178.85</ele>
        <time>2015-06-27T12:45:25Z</time>
      </trkpt>
      <trkpt lat="45.42111" lon="6.21711">
        <ele>2186.43</ele>
        <time>2015-06-27T12:46:13Z</time>
      </trkpt>
      <trkpt lat="45.42122" lon="6.2169">
        <ele>2195.6</ele>
        <time>2015-06-27T12:46:52Z</time>
      </trkpt>
      <trkpt lat="45.42127" lon="6.21664">
        <ele>2196.36</ele>
        <time>2015-06-27T12:47:21Z</time>
      </trkpt>
      <trkpt lat="45.42131" lon="6.21639">
        <ele>2202.46</ele>
        <time>2015-06-27T12:47:51Z</time>
      </trkpt>
      <trkpt lat="45.42136" lon="6.21614">
        <ele>2208.18</ele>
        <time>2015-06-27T12:48:28Z</time>
      </trkpt>
      <trkpt lat="45.42137" lon="6.21588">
        <ele>2205.9</ele>
        <time>2015-06-27T12:48:56Z</time>
      </trkpt>
      <trkpt lat="45.42138" lon="6.21563">
        <ele>2209.64</ele>
        <time>2015-06-27T12:49:30Z</time>
      </trkpt>
      <trkpt lat="45.42132" lon="6.21538">
        <ele>2211.78</ele>
        <time>2015-06-27T12:50:02Z</time>
      </trkpt>
      <trkpt lat="45.42134" lon="6.21512">
        <ele>2224.5</ele>
        <time>2015-06-27T12:51:15Z</time>
      </trkpt>
      <trkpt lat="45.42128" lon="6.21486">
        <ele>2229.89</ele>
        <time>2015-06-27T12:51:49Z</time>
      </trkpt>
      <trkpt lat="45.4212" lon="6.21464">
        <ele>2233.44</ele>
        <time>2015-06-27T12:52:27Z</time>
      </trkpt>
      <trkpt lat="45.42111" lon="6.21441">
        <ele>2247.74</ele>
        <time>2015-06-27T12:53:11Z</time>
      </trkpt>
      <trkpt lat="45.42129" lon="6.2144">
        <ele>2256.72</ele>
        <time>2015-06-27T12:54:03Z</time>
      </trkpt>
      <trkpt lat="45.42146" lon="6.21448">
        <ele>2259.54</ele>
        <time>2015-06-27T12:54:42Z</time>
      </trkpt>
      <trkpt lat="45.42139" lon="6.21424">
        <ele>2264.69</ele>
        <time>2015-06-27T12:55:23Z</time>
      </trkpt>
      <trkpt lat="45.42134" lon="6.21399">
        <ele>2273.53</ele>
        <time>2015-06-27T12:56:01Z</time>
      </trkpt>
      <trkpt lat="45.42152" lon="6.21406">
        <ele>2283.49</ele>
        <time>2015-06-27T12:56:40Z</time>
      </trkpt>
      <trkpt lat="45.42169" lon="6.21412">
        <ele>2289.74</ele>
        <time>2015-06-27T12:57:11Z</time>
      </trkpt>
      <trkpt lat="45.42186" lon="6.21423">
        <ele>2296.61</ele>
        <time>2015-06-27T12:57:41Z</time>
      </trkpt>
      <trkpt lat="45.422" lon="6.21439">
        <ele>2298.75</ele>
        <time>2015-06-27T12:58:10Z</time>
      </trkpt>
      <trkpt lat="45.42212" lon="6.21459">
        <ele>2303.38</ele>
        <time>2015-06-27T12:58:37Z</time>
      </trkpt>
      <trkpt lat="45.42226" lon="6.21475">
        <ele>2305.13</ele>
        <time>2015-06-27T12:59:10Z</time>
      </trkpt>
      <trkpt lat="45.42232" lon="6.21499">
        <ele>2301.88</ele>
        <time>2015-06-27T12:59:44Z</time>
      </trkpt>
      <trkpt lat="45.42226" lon="6.21524">
        <ele>2297.98</ele>
        <time>2015-06-27T13:00:20Z</time>
      </trkpt>
      <trkpt lat="45.42228" lon="6.2155">
        <ele>2293.01</ele>
        <time>2015-06-27T13:00:42Z</time>
      </trkpt>
      <trkpt lat="45.42232" lon="6.21576">
        <ele>2289.26</ele>
        <time>2015-06-27T13:01:06Z</time>
      </trkpt>
      <trkpt lat="45.42246" lon="6.21592">
        <ele>2289.87</ele>
        <time>2015-06-27T13:01:24Z</time>
      </trkpt>
      <trkpt lat="45.42264" lon="6.21596">
        <ele>2291.63</ele>
        <time>2015-06-27T13:01:52Z</time>
      </trkpt>
      <trkpt lat="45.4227" lon="6.21621">
        <ele>2297.69</ele>
        <time>2015-06-27T13:02:18Z</time>
      </trkpt>
      <trkpt lat="45.42275" lon="6.21647">
        <ele>2300.36</ele>
        <time>2015-06-27T13:02:40Z</time>
      </trkpt>
      <trkpt lat="45.4229" lon="6.21661">
        <ele>2299.19</ele>
        <time>2015-06-27T13:02:58Z</time>
      </trkpt>
      <trkpt lat="45.42306" lon="6.21677">
        <ele>2298.63</ele>
        <time>2015-06-27T13:03:19Z</time>
      </trkpt>
      <trkpt lat="45.42317" lon="6.21698">
        <ele>2303.82</ele>
        <time>2015-06-27T13:03:46Z</time>
      </trkpt>
      <trkpt lat="45.42324" lon="6.21722">
        <ele>2305.86</ele>
        <time>2015-06-27T13:04:10Z</time>
      </trkpt>
      <trkpt lat="45.42331" lon="6.21746">
        <ele>2308.94</ele>
        <time>2015-06-27T13:04:40Z</time>
      </trkpt>
      <trkpt lat="45.4234" lon="6.21769">
        <ele>2309.35</ele>
        <time>2015-06-27T13:05:06Z</time>
      </trkpt>
      <trkpt lat="45.42344" lon="6.21794">
        <ele>2315.38</ele>
        <time>2015-06-27T13:05:41Z</time>
      </trkpt>
      <trkpt lat="45.42344" lon="6.2182">
        <ele>2330.8</ele>
        <time>2015-06-27T13:07:31Z</time>
      </trkpt>
      <trkpt lat="45.42337" lon="6.2183">
        <ele>2342.88</ele>
        <time>2015-06-27T13:16:29Z</time>
      </trkpt>
      <trkpt lat="45.4234" lon="6.2183">
        <ele>2339.88</ele>
        <time>2015-06-27T13:21:15Z</time>
      </trkpt>
      <trkpt lat="45.42358" lon="6.21828">
        <ele>2328.45</ele>
        <time>2015-06-27T13:37:56Z</time>
      </trkpt>
      <trkpt lat="45.42375" lon="6.21816">
        <ele>2325.19</ele>
        <time>2015-06-27T13:38:35Z</time>
      </trkpt>
      <trkpt lat="45.42381" lon="6.21791">
        <ele>2321.98</ele>
        <time>2015-06-27T13:38:59Z</time>
      </trkpt>
      <trkpt lat="45.42399" lon="6.21789">
        <ele>2311.93</ele>
        <time>2015-06-27T13:40:13Z</time>
      </trkpt>
      <trkpt lat="45.42411" lon="6.21769">
        <ele>2305.14</ele>
        <time>2015-06-27T13:40:54Z</time>
      </trkpt>
      <trkpt lat="45.42402" lon="6.21745">
        <ele>2292.12</ele>
        <time>2015-06-27T13:41:40Z</time>
      </trkpt>
      <trkpt lat="45.42411" lon="6.21722">
        <ele>2277.6</ele>
        <time>2015-06-27T13:43:49Z</time>
      </trkpt>
      <trkpt lat="45.42424" lon="6.21705">
        <ele>2275.55</ele>
        <time>2015-06-27T13:44:46Z</time>
      </trkpt>
      <trkpt lat="45.4242" lon="6.21679">
        <ele>2266.04</ele>
        <time>2015-06-27T13:45:31Z</time>
      </trkpt>
      <trkpt lat="45.42438" lon="6.21678">
        <ele>2252.92</ele>
        <time>2015-06-27T13:46:52Z</time>
      </trkpt>
      <trkpt lat="45.42453" lon="6.21661">
        <ele>2261.13</ele>
        <time>2015-06-27T13:47:40Z</time>
      </trkpt>
      <trkpt lat="45.42471" lon="6.21661">
        <ele>2253.92</ele>
        <time>2015-06-27T13:48:14Z</time>
      </trkpt>
      <trkpt lat="45.42489" lon="6.21654">
        <ele>2241.88</ele>
        <time>2015-06-27T13:49:02Z</time>
      </trkpt>
      <trkpt lat="45.42498" lon="6.21631">
        <ele>2237.57</ele>
        <time>2015-06-27T13:49:34Z</time>
      </trkpt>
      <trkpt lat="45.42508" lon="6.21609">
        <ele>2238.66</ele>
        <time>2015-06-27T13:49:52Z</time>
      </trkpt>
      <trkpt lat="45.42517" lon="6.21586">
        <ele>2246.36</ele>
        <time>2015-06-27T13:50:17Z</time>
      </trkpt>
      <trkpt lat="45.42531" lon="6.2157">
        <ele>2252.46</ele>
        <time>2015-06-27T13:50:39Z</time>
      </trkpt>
      <trkpt lat="45.42543" lon="6.21551">
        <ele>2256.55</ele>
        <time>2015-06-27T13:51:20Z</time>
      </trkpt>
      <trkpt lat="45.42554" lon="6.2153">
        <ele>2260.09</ele>
        <time>2015-06-27T13:52:03Z</time>
      </trkpt>
      <trkpt lat="45.42542" lon="6.21549">
        <ele>2257.06</ele>
        <time>2015-06-27T13:54:40Z</time>
      </trkpt>
      <trkpt lat="45.42529" lon="6.21568">
        <ele>2251.44</ele>
        <time>2015-06-27T13:55:15Z</time>
      </trkpt>
      <trkpt lat="45.42516" lon="6.21586">
        <ele>2247.95</ele>
        <time>2015-06-27T13:55:32Z</time>
      </trkpt>
      <trkpt lat="45.42506" lon="6.21609">
        <ele>2242.4</ele>
        <time>2015-06-27T13:55:49Z</time>
      </trkpt>
      <trkpt lat="45.42499" lon="6.21632">
        <ele>2238.89</ele>
        <time>2015-06-27T13:56:04Z</time>
      </trkpt>
      <trkpt lat="45.4248" lon="6.21631">
        <ele>2217.06</ele>
        <time>2015-06-27T13:58:46Z</time>
      </trkpt>
      <trkpt lat="45.42479" lon="6.21605">
        <ele>2200.92</ele>
        <time>2015-06-27T13:59:58Z</time>
      </trkpt>
      <trkpt lat="45.4248" lon="6.21579">
        <ele>2187.26</ele>
        <time>2015-06-27T14:01:27Z</time>
      </trkpt>
      <trkpt lat="45.42465" lon="6.21564">
        <ele>2169.26</ele>
        <time>2015-06-27T14:03:08Z</time>
      </trkpt>
      <trkpt lat="45.42464" lon="6.21538">
        <ele>2169.89</ele>
        <time>2015-06-27T14:03:56Z</time>
      </trkpt>
      <trkpt lat="45.42469" lon="6.21512">
        <ele>2163.45</ele>
        <time>2015-06-27T14:04:16Z</time>
      </trkpt>
      <trkpt lat="45.42476" lon="6.21488">
        <ele>2157.2</ele>
        <time>2015-06-27T14:04:51Z</time>
      </trkpt>
      <trkpt lat="45.42487" lon="6.21465">
        <ele>2143.59</ele>
        <time>2015-06-27T14:05:23Z</time>
      </trkpt>
      <trkpt lat="45.42496" lon="6.21443">
        <ele>2142.54</ele>
        <time>2015-06-27T14:05:40Z</time>
      </trkpt>
      <trkpt lat="45.425" lon="6.21417">
        <ele>2136.16</ele>
        <time>2015-06-27T14:06:06Z</time>
      </trkpt>
      <trkpt lat="45.42503" lon="6.21392">
        <ele>2129.45</ele>
        <time>2015-06-27T14:06:34Z</time>
      </trkpt>
      <trkpt lat="45.42502" lon="6.21366">
        <ele>2115.02</ele>
        <time>2015-06-27T14:07:15Z</time>
      </trkpt>
      <trkpt lat="45.42499" lon="6.21339">
        <ele>2106.23</ele>
        <time>2015-06-27T14:08:17Z</time>
      </trkpt>
      <trkpt lat="45.42493" lon="6.21315">
        <ele>2085.89</ele>
        <time>2015-06-27T14:10:38Z</time>
      </trkpt>
      <trkpt lat="45.42508" lon="6.21299">
        <ele>2076.2</ele>
        <time>2015-06-27T14:11:23Z</time>
      </trkpt>
      <trkpt lat="45.42526" lon="6.21292">
        <ele>2075.94</ele>
        <time>2015-06-27T14:11:45Z</time>
      </trkpt>
      <trkpt lat="45.42543" lon="6.21279">
        <ele>2070.47</ele>
        <time>2015-06-27T14:12:01Z</time>
      </trkpt>
      <trkpt lat="45.42559" lon="6.21265">
        <ele>2066.21</ele>
        <time>2015-06-27T14:12:19Z</time>
      </trkpt>
      <trkpt lat="45.42576" lon="6.21255">
        <ele>2065.44</ele>
        <time>2015-06-27T14:12:43Z</time>
      </trkpt>
      <trkpt lat="45.42591" lon="6.21237">
        <ele>2054.41</ele>
        <time>2015-06-27T14:13:10Z</time>
      </trkpt>
      <trkpt lat="45.42596" lon="6.21211">
        <ele>2050.27</ele>
        <time>2015-06-27T14:13:54Z</time>
      </trkpt>
      <trkpt lat="45.42606" lon="6.2119">
        <ele>2040.86</ele>
        <time>2015-06-27T14:14:24Z</time>
      </trkpt>
      <trkpt lat="45.42619" lon="6.2117">
        <ele>2031.11</ele>
        <time>2015-06-27T14:14:56Z</time>
      </trkpt>
      <trkpt lat="45.42635" lon="6.21156">
        <ele>2031.57</ele>
        <time>2015-06-27T14:15:26Z</time>
      </trkpt>
      <trkpt lat="45.4265" lon="6.21143">
        <ele>2020.38</ele>
        <time>2015-06-27T14:16:33Z</time>
      </trkpt>
      <trkpt lat="45.42667" lon="6.21133">
        <ele>1998.62</ele>
        <time>2015-06-27T14:17:20Z</time>
      </trkpt>
      <trkpt lat="45.42685" lon="6.21128">
        <ele>1994.12</ele>
        <time>2015-06-27T14:17:41Z</time>
      </trkpt>
      <trkpt lat="45.42703" lon="6.21131">
        <ele>1995.37</ele>
        <time>2015-06-27T14:17:58Z</time>
      </trkpt>
      <trkpt lat="45.42721" lon="6.21125">
        <ele>1994.85</ele>
        <time>2015-06-27T14:18:26Z</time>
      </trkpt>
      <trkpt lat="45.42739" lon="6.2113">
        <ele>1987.5</ele>
        <time>2015-06-27T14:18:56Z</time>
      </trkpt>
      <trkpt lat="45.42757" lon="6.21134">
        <ele>1978.52</ele>
        <time>2015-06-27T14:19:12Z</time>
      </trkpt>
      <trkpt lat="45.42775" lon="6.21137">
        <ele>1979.87</ele>
        <time>2015-06-27T14:19:38Z</time>
      </trkpt>
      <trkpt lat="45.42794" lon="6.21143">
        <ele>1982.07</ele>
        <time>2015-06-27T14:19:53Z</time>
      </trkpt>
      <trkpt lat="45.42792" lon="6.21116">
        <ele>1980.97</ele>
        <time>2015-06-27T14:23:07Z</time>
      </trkpt>
      <trkpt lat="45.42785" lon="6.21091">
        <ele>1969.15</ele>
        <time>2015-06-27T14:23:44Z</time>
      </trkpt>
      <trkpt lat="45.42782" lon="6.21065">
        <ele>1962.72</ele>
        <time>2015-06-27T14:24:14Z</time>
      </trkpt>
      <trkpt lat="45.42766" lon="6.21051">
        <ele>1958.2</ele>
        <time>2015-06-27T14:24:32Z</time>
      </trkpt>
      <trkpt lat="45.42772" lon="6.21026">
        <ele>1950.4</ele>
        <time>2015-06-27T14:24:54Z</time>
      </trkpt>
      <trkpt lat="45.42766" lon="6.21001">
        <ele>1946.05</ele>
        <time>2015-06-27T14:25:12Z</time>
      </trkpt>
      <trkpt lat="45.42758" lon="6.20977">
        <ele>1936.46</ele>
        <time>2015-06-27T14:25:32Z</time>
      </trkpt>
      <trkpt lat="45.42752" lon="6.20952">
        <ele>1929.65</ele>
        <time>2015-06-27T14:25:47Z</time>
      </trkpt>
      <trkpt lat="45.42744" lon="6.20928">
        <ele>1911.29</ele>
        <time>2015-06-27T14:26:07Z</time>
      </trkpt>
      <trkpt lat="45.42733" lon="6.20906">
        <ele>1907.63</ele>
        <time>2015-06-27T14:26:20Z</time>
      </trkpt>
      <trkpt lat="45.42727" lon="6.20882">
        <ele>1903.37</ele>
        <time>2015-06-27T14:26:43Z</time>
      </trkpt>
      <trkpt lat="45.42725" lon="6.20856">
        <ele>1898.04</ele>
        <time>2015-06-27T14:26:58Z</time>
      </trkpt>
      <trkpt lat="45.42721" lon="6.20828">
        <ele>1895.58</ele>
        <time>2015-06-27T14:27:11Z</time>
      </trkpt>
      <trkpt lat="45.42718" lon="6.20803">
        <ele>1896.61</ele>
        <time>2015-06-27T14:27:26Z</time>
      </trkpt>
      <trkpt lat="45.42705" lon="6.20783">
        <ele>1889.18</ele>
        <time>2015-06-27T14:27:46Z</time>
      </trkpt>
      <trkpt lat="45.4269" lon="6.20767">
        <ele>1884.25</ele>
        <time>2015-06-27T14:28:00Z</time>
      </trkpt>
      <trkpt lat="45.4268" lon="6.20745">
        <ele>1885.33</ele>
        <time>2015-06-27T14:28:17Z</time>
      </trkpt>
      <trkpt lat="45.42668" lon="6.20725">
        <ele>1883.87</ele>
        <time>2015-06-27T14:28:40Z</time>
      </trkpt>
      <trkpt lat="45.42658" lon="6.20702">
        <ele>1882.94</ele>
        <time>2015-06-27T14:28:56Z</time>
      </trkpt>
      <trkpt lat="45.42645" lon="6.20683">
        <ele>1877.8</ele>
        <time>2015-06-27T14:29:16Z</time>
      </trkpt>
      <trkpt lat="45.42632" lon="6.20663">
        <ele>1873.32</ele>
        <time>2015-06-27T14:29:33Z</time>
      </trkpt>
      <trkpt lat="45.42621" lon="6.20643">
        <ele>1865.69</ele>
        <time>2015-06-27T14:29:48Z</time>
      </trkpt>
      <trkpt lat="45.42609" lon="6.2062">
        <ele>1866.04</ele>
        <time>2015-06-27T14:31:09Z</time>
      </trkpt>
      <trkpt lat="45.42597" lon="6.20601">
        <ele>1859.25</ele>
        <time>2015-06-27T14:31:27Z</time>
      </trkpt>
      <trkpt lat="45.42587" lon="6.20579">
        <ele>1847.37</ele>
        <time>2015-06-27T14:31:50Z</time>
      </trkpt>
      <trkpt lat="45.42576" lon="6.20558">
        <ele>1846.57</ele>
        <time>2015-06-27T14:32:09Z</time>
      </trkpt>
      <trkpt lat="45.42562" lon="6.20541">
        <ele>1841.13</ele>
        <time>2015-06-27T14:32:26Z</time>
      </trkpt>
      <trkpt lat="45.42548" lon="6.20523">
        <ele>1833.04</ele>
        <time>2015-06-27T14:32:47Z</time>
      </trkpt>
      <trkpt lat="45.42539" lon="6.205">
        <ele>1831.01</ele>
        <time>2015-06-27T14:33:02Z</time>
      </trkpt>
      <trkpt lat="45.42524" lon="6.20482">
        <ele>1828.66</ele>
        <time>2015-06-27T14:33:19Z</time>
      </trkpt>
      <trkpt lat="45.42512" lon="6.20462">
        <ele>1825.87</ele>
        <time>2015-06-27T14:33:36Z</time>
      </trkpt>
      <trkpt lat="45.42504" lon="6.20439">
        <ele>1827.54</ele>
        <time>2015-06-27T14:33:54Z</time>
      </trkpt>
      <trkpt lat="45.42503" lon="6.20413">
        <ele>1828.23</ele>
        <time>2015-06-27T14:34:13Z</time>
      </trkpt>
      <trkpt lat="45.425" lon="6.20388">
        <ele>1822.94</ele>
        <time>2015-06-27T14:34:45Z</time>
      </trkpt>
      <trkpt lat="45.42496" lon="6.20363">
        <ele>1814.41</ele>
        <time>2015-06-27T14:35:15Z</time>
      </trkpt>
      <trkpt lat="45.42489" lon="6.20339">
        <ele>1800.26</ele>
        <time>2015-06-27T14:35:42Z</time>
      </trkpt>
      <trkpt lat="45.42472" lon="6.20328">
        <ele>1789.07</ele>
        <time>2015-06-27T14:36:10Z</time>
      </trkpt>
      <trkpt lat="45.42459" lon="6.20308">
        <ele>1782.83</ele>
        <time>2015-06-27T14:36:30Z</time>
      </trkpt>
      <trkpt lat="45.42445" lon="6.20293">
        <ele>1779.91</ele>
        <time>2015-06-27T14:37:05Z</time>
      </trkpt>
      <trkpt lat="45.4244" lon="6.20268">
        <ele>1777.44</ele>
        <time>2015-06-27T14:37:35Z</time>
      </trkpt>
      <trkpt lat="45.42426" lon="6.20249">
        <ele>1765.01</ele>
        <time>2015-06-27T14:38:21Z</time>
      </trkpt>
      <trkpt lat="45.42422" lon="6.20224">
        <ele>1762.01</ele>
        <time>2015-06-27T14:38:41Z</time>
      </trkpt>
      <trkpt lat="45.42435" lon="6.20205">
        <ele>1758.4</ele>
        <time>2015-06-27T14:39:14Z</time>
      </trkpt>
      <trkpt lat="45.42444" lon="6.20183">
        <ele>1752.05</ele>
        <time>2015-06-27T14:39:32Z</time>
      </trkpt>
      <trkpt lat="45.42453" lon="6.2016">
        <ele>1745.48</ele>
        <time>2015-06-27T14:40:03Z</time>
      </trkpt>
      <trkpt lat="45.42471" lon="6.20154">
        <ele>1746.87</ele>
        <time>2015-06-27T14:40:23Z</time>
      </trkpt>
      <trkpt lat="45.42452" lon="6.20158">
        <ele>1743.88</ele>
        <time>2015-06-27T14:41:29Z</time>
      </trkpt>
      <trkpt lat="45.42448" lon="6.20133">
        <ele>1737.17</ele>
        <time>2015-06-27T14:42:12Z</time>
      </trkpt>
      <trkpt lat="45.4246" lon="6.20111">
        <ele>1732.46</ele>
        <time>2015-06-27T14:42:30Z</time>
      </trkpt>
      <trkpt lat="45.42461" lon="6.20084">
        <ele>1726.75</ele>
        <time>2015-06-27T14:43:24Z</time>
      </trkpt>
      <trkpt lat="45.42467" lon="6.20058">
        <ele>1720.17</ele>
        <time>2015-06-27T14:43:44Z</time>
      </trkpt>
      <trkpt lat="45.42472" lon="6.20034">
        <ele>1713.92</ele>
        <time>2015-06-27T14:44:02Z</time>
      </trkpt>
      <trkpt lat="45.42469" lon="6.20008">
        <ele>1703.45</ele>
        <time>2015-06-27T14:44:27Z</time>
      </trkpt>
      <trkpt lat="45.42457" lon="6.19988">
        <ele>1695.19</ele>
        <time>2015-06-27T14:45:23Z</time>
      </trkpt>
      <trkpt lat="45.42442" lon="6.19972">
        <ele>1685.48</ele>
        <time>2015-06-27T14:46:06Z</time>
      </trkpt>
      <trkpt lat="45.42431" lon="6.19952">
        <ele>1677.44</ele>
        <time>2015-06-27T14:46:51Z</time>
      </trkpt>
      <trkpt lat="45.42438" lon="6.19928">
        <ele>1672.45</ele>
        <time>2015-06-27T14:47:12Z</time>
      </trkpt>
      <trkpt lat="45.42445" lon="6.19905">
        <ele>1664.92</ele>
        <time>2015-06-27T14:47:33Z</time>
      </trkpt>
      <trkpt lat="45.42429" lon="6.19889">
        <ele>1658.76</ele>
        <time>2015-06-27T14:48:10Z</time>
      </trkpt>
      <trkpt lat="45.42411" lon="6.19894">
        <ele>1653.38</ele>
        <time>2015-06-27T14:48:33Z</time>
      </trkpt>
      <trkpt lat="45.42395" lon="6.19908">
        <ele>1644.19</ele>
        <time>2015-06-27T14:48:46Z</time>
      </trkpt>
      <trkpt lat="45.42384" lon="6.19886">
        <ele>1636.15</ele>
        <time>2015-06-27T14:49:16Z</time>
      </trkpt>
      <trkpt lat="45.42395" lon="6.19865">
        <ele>1631.36</ele>
        <time>2015-06-27T14:49:32Z</time>
      </trkpt>
      <trkpt lat="45.42378" lon="6.19872">
        <ele>1630.39</ele>
        <time>2015-06-27T14:49:54Z</time>
      </trkpt>
      <trkpt lat="45.42361" lon="6.19862">
        <ele>1624.1</ele>
        <time>2015-06-27T14:51:30Z</time>
      </trkpt>
      <trkpt lat="45.42363" lon="6.19836">
        <ele>1625.68</ele>
        <time>2015-06-27T14:52:57Z</time>
      </trkpt>
      <trkpt lat="45.42373" lon="6.19814">
        <ele>1624.35</ele>
        <time>2015-06-27T14:53:15Z</time>
      </trkpt>
      <trkpt lat="45.42373" lon="6.19787">
        <ele>1622.16</ele>
        <time>2015-06-27T14:53:32Z</time>
      </trkpt>
      <trkpt lat="45.42374" lon="6.19761">
        <ele>1619.15</ele>
        <time>2015-06-27T14:53:50Z</time>
      </trkpt>
      <trkpt lat="45.42384" lon="6.19738">
        <ele>1615.14</ele>
        <time>2015-06-27T14:54:06Z</time>
      </trkpt>
      <trkpt lat="45.4238" lon="6.19712">
        <ele>1610.71</ele>
        <time>2015-06-27T14:54:22Z</time>
      </trkpt>
      <trkpt lat="45.42383" lon="6.19686">
        <ele>1608.41</ele>
        <time>2015-06-27T14:54:39Z</time>
      </trkpt>
      <trkpt lat="45.42382" lon="6.1966">
        <ele>1606</ele>
        <time>2015-06-27T14:54:59Z</time>
      </trkpt>
      <trkpt lat="45.42378" lon="6.19634">
        <ele>1601.16</ele>
        <time>2015-06-27T14:55:19Z</time>
      </trkpt>
      <trkpt lat="45.42375" lon="6.19607">
        <ele>1594.94</ele>
        <time>2015-06-27T14:55:42Z</time>
      </trkpt>
      <trkpt lat="45.4237" lon="6.19581">
        <ele>1593.13</ele>
        <time>2015-06-27T14:56:02Z</time>
      </trkpt>
      <trkpt lat="45.42361" lon="6.19557">
        <ele>1589.77</ele>
        <time>2015-06-27T14:56:21Z</time>
      </trkpt>
      <trkpt lat="45.42354" lon="6.19534">
        <ele>1586.45</ele>
        <time>2015-06-27T14:56:39Z</time>
      </trkpt>
      <trkpt lat="45.42347" lon="6.19509">
        <ele>1583.5</ele>
        <time>2015-06-27T14:56:56Z</time>
      </trkpt>
      <trkpt lat="45.4234" lon="6.19485">
        <ele>1579.94</ele>
        <time>2015-06-27T14:57:14Z</time>
      </trkpt>
      <trkpt lat="45.42333" lon="6.19461">
        <ele>1573.83</ele>
        <time>2015-06-27T14:57:36Z</time>
      </trkpt>
      <trkpt lat="45.42324" lon="6.19438">
        <ele>1570.51</ele>
        <time>2015-06-27T14:57:56Z</time>
      </trkpt>
      <trkpt lat="45.42329" lon="6.19413">
        <ele>1557.93</ele>
        <time>2015-06-27T14:58:27Z</time>
      </trkpt>
      <trkpt lat="45.42347" lon="6.19414">
        <ele>1547.55</ele>
        <time>2015-06-27T14:58:54Z</time>
      </trkpt>
      <trkpt lat="45.42365" lon="6.19406">
        <ele>1539.93</ele>
        <time>2015-06-27T14:59:24Z</time>
      </trkpt>
      <trkpt lat="45.42377" lon="6.19387">
        <ele>1532.74</ele>
        <time>2015-06-27T14:59:58Z</time>
      </trkpt>
      <trkpt lat="45.42372" lon="6.19362">
        <ele>1524.13</ele>
        <time>2015-06-27T15:00:20Z</time>
      </trkpt>
      <trkpt lat="45.42373" lon="6.19336">
        <ele>1516.85</ele>
        <time>2015-06-27T15:00:46Z</time>
      </trkpt>
      <trkpt lat="45.42383" lon="6.19314">
        <ele>1510.87</ele>
        <time>2015-06-27T15:01:24Z</time>
      </trkpt>
      <trkpt lat="45.42381" lon="6.19287">
        <ele>1504.9</ele>
        <time>2015-06-27T15:02:03Z</time>
      </trkpt>
      <trkpt lat="45.42385" lon="6.19261">
        <ele>1507.09</ele>
        <time>2015-06-27T15:02:21Z</time>
      </trkpt>
      <trkpt lat="45.42397" lon="6.1924">
        <ele>1496.13</ele>
        <time>2015-06-27T15:02:54Z</time>
      </trkpt>
      <trkpt lat="45.42393" lon="6.19213">
        <ele>1489.66</ele>
        <time>2015-06-27T15:03:19Z</time>
      </trkpt>
      <trkpt lat="45.42398" lon="6.19188">
        <ele>1483.27</ele>
        <time>2015-06-27T15:03:43Z</time>
      </trkpt>
      <trkpt lat="45.42385" lon="6.19169">
        <ele>1477.88</ele>
        <time>2015-06-27T15:04:05Z</time>
      </trkpt>
      <trkpt lat="45.4237" lon="6.19155">
        <ele>1477.44</ele>
        <time>2015-06-27T15:04:37Z</time>
      </trkpt>
      <trkpt lat="45.42356" lon="6.19138">
        <ele>1479.09</ele>
        <time>2015-06-27T15:04:58Z</time>
      </trkpt>
      <trkpt lat="45.42344" lon="6.19118">
        <ele>1485.21</ele>
        <time>2015-06-27T15:05:21Z</time>
      </trkpt>
      <trkpt lat="45.42334" lon="6.19097">
        <ele>1486.47</ele>
        <time>2015-06-27T15:05:39Z</time>
      </trkpt>
      <trkpt lat="45.42327" lon="6.19072">
        <ele>1486.67</ele>
        <time>2015-06-27T15:06:00Z</time>
      </trkpt>
      <trkpt lat="45.42322" lon="6.19046">
        <ele>1485.33</ele>
        <time>2015-06-27T15:06:17Z</time>
      </trkpt>
      <trkpt lat="45.42317" lon="6.1902">
        <ele>1489.86</ele>
        <time>2015-06-27T15:06:40Z</time>
      </trkpt>
      <trkpt lat="45.42309" lon="6.18996">
        <ele>1493.63</ele>
        <time>2015-06-27T15:07:11Z</time>
      </trkpt>
      <trkpt lat="45.42312" lon="6.1897">
        <ele>1500.36</ele>
        <time>2015-06-27T15:07:42Z</time>
      </trkpt>
      <trkpt lat="45.42305" lon="6.18945">
        <ele>1502.17</ele>
        <time>2015-06-27T15:08:06Z</time>
      </trkpt>
      <trkpt lat="45.42311" lon="6.1892">
        <ele>1501.71</ele>
        <time>2015-06-27T15:08:25Z</time>
      </trkpt>
      <trkpt lat="45.42311" lon="6.18894">
        <ele>1506.84</ele>
        <time>2015-06-27T15:08:44Z</time>
      </trkpt>
      <trkpt lat="45.42308" lon="6.18868">
        <ele>1503.42</ele>
        <time>2015-06-27T15:09:02Z</time>
      </trkpt>
      <trkpt lat="45.4231" lon="6.18842">
        <ele>1505.8</ele>
        <time>2015-06-27T15:09:21Z</time>
      </trkpt>
      <trkpt lat="45.42309" lon="6.18816">
        <ele>1506.23</ele>
        <time>2015-06-27T15:09:39Z</time>
      </trkpt>
      <trkpt lat="45.42311" lon="6.18791">
        <ele>1507.27</ele>
        <time>2015-06-27T15:09:58Z</time>
      </trkpt>
      <trkpt lat="45.42312" lon="6.18765">
        <ele>1507</ele>
        <time>2015-06-27T15:10:16Z</time>
      </trkpt>
      <trkpt lat="45.42314" lon="6.18739">
        <ele>1511.88</ele>
        <time>2015-06-27T15:10:35Z</time>
      </trkpt>
      <trkpt lat="45.42323" lon="6.18717">
        <ele>1516.82</ele>
        <time>2015-06-27T15:10:58Z</time>
      </trkpt>
      <trkpt lat="45.42326" lon="6.18691">
        <ele>1519.16</ele>
        <time>2015-06-27T15:11:16Z</time>
      </trkpt>
      <trkpt lat="45.42334" lon="6.18667">
        <ele>1520.46</ele>
        <time>2015-06-27T15:11:36Z</time>
      </trkpt>
      <trkpt lat="45.42351" lon="6.18658">
        <ele>1526.94</ele>
        <time>2015-06-27T15:12:02Z</time>
      </trkpt>
      <trkpt lat="45.42368" lon="6.18646">
        <ele>1531.74</ele>
        <time>2015-06-27T15:12:32Z</time>
      </trkpt>
      <trkpt lat="45.4238" lon="6.18626">
        <ele>1529.67</ele>
        <time>2015-06-27T15:12:52Z</time>
      </trkpt>
      <trkpt lat="45.42368" lon="6.18607">
        <ele>1536.17</ele>
        <time>2015-06-27T15:13:34Z</time>
      </trkpt>
      <trkpt lat="45.42353" lon="6.18588">
        <ele>1533.89</ele>
        <time>2015-06-27T15:13:54Z</time>
      </trkpt>
      <trkpt lat="45.42344" lon="6.18567">
        <ele>1540.32</ele>
        <time>2015-06-27T15:14:18Z</time>
      </trkpt>
      <trkpt lat="45.42332" lon="6.18546">
        <ele>1547.5</ele>
        <time>2015-06-27T15:14:47Z</time>
      </trkpt>
      <trkpt lat="45.42323" lon="6.18524">
        <ele>1553.2</ele>
        <time>2015-06-27T15:15:14Z</time>
      </trkpt>
      <trkpt lat="45.42317" lon="6.18499">
        <ele>1566.1</ele>
        <time>2015-06-27T15:16:25Z</time>
      </trkpt>
      <trkpt lat="45.42306" lon="6.18479">
        <ele>1576.86</ele>
        <time>2015-06-27T15:17:15Z</time>
      </trkpt>
      <trkpt lat="45.42302" lon="6.18454">
        <ele>1579.66</ele>
        <time>2015-06-27T15:17:54Z</time>
      </trkpt>
      <trkpt lat="45.42299" lon="6.18428">
        <ele>1588.36</ele>
        <time>2015-06-27T15:18:35Z</time>
      </trkpt>
      <trkpt lat="45.42297" lon="6.18402">
        <ele>1594.15</ele>
        <time>2015-06-27T15:19:10Z</time>
      </trkpt>
      <trkpt lat="45.42292" lon="6.18375">
        <ele>1598.16</ele>
        <time>2015-06-27T15:19:59Z</time>
      </trkpt>
      <trkpt lat="45.42274" lon="6.18379">
        <ele>1610.78</ele>
        <time>2015-06-27T15:20:23Z</time>
      </trkpt>
      <trkpt lat="45.4226" lon="6.18396">
        <ele>1615.81</ele>
        <time>2015-06-27T15:20:39Z</time>
      </trkpt>
      <trkpt lat="45.42245" lon="6.18408">
        <ele>1623.33</ele>
        <time>2015-06-27T15:21:01Z</time>
      </trkpt>
      <trkpt lat="45.42227" lon="6.18403">
        <ele>1632.36</ele>
        <time>2015-06-27T15:21:43Z</time>
      </trkpt>
      <trkpt lat="45.4222" lon="6.18379">
        <ele>1643.82</ele>
        <time>2015-06-27T15:22:37Z</time>
      </trkpt>
      <trkpt lat="45.42217" lon="6.18353">
        <ele>1648.09</ele>
        <time>2015-06-27T15:23:20Z</time>
      </trkpt>
      <trkpt lat="45.42211" lon="6.18328">
        <ele>1657.24</ele>
        <time>2015-06-27T15:24:08Z</time>
      </trkpt>
      <trkpt lat="45.42198" lon="6.18311">
        <ele>1667.34</ele>
        <time>2015-06-27T15:25:11Z</time>
      </trkpt>
      <trkpt lat="45.42205" lon="6.18287">
        <ele>1674.82</ele>
        <time>2015-06-27T15:25:42Z</time>
      </trkpt>
      <trkpt lat="45.42192" lon="6.1827">
        <ele>1681.56</ele>
        <time>2015-06-27T15:26:25Z</time>
      </trkpt>
      <trkpt lat="45.42173" lon="6.18267">
        <ele>1686.11</ele>
        <time>2015-06-27T15:27:04Z</time>
      </trkpt>
      <trkpt lat="45.42158" lon="6.18282">
        <ele>1691.12</ele>
        <time>2015-06-27T15:27:26Z</time>
      </trkpt>
      <trkpt lat="45.4214" lon="6.18278">
        <ele>1691.33</ele>
        <time>2015-06-27T15:27:47Z</time>
      </trkpt>
      <trkpt lat="45.4213" lon="6.18256">
        <ele>1699.6</ele>
        <time>2015-06-27T15:28:15Z</time>
      </trkpt>
      <trkpt lat="45.42136" lon="6.18231">
        <ele>1702.86</ele>
        <time>2015-06-27T15:28:37Z</time>
      </trkpt>
      <trkpt lat="45.4214" lon="6.18206">
        <ele>1704.88</ele>
        <time>2015-06-27T15:28:57Z</time>
      </trkpt>
      <trkpt lat="45.4214" lon="6.18179">
        <ele>1707.25</ele>
        <time>2015-06-27T15:29:16Z</time>
      </trkpt>
      <trkpt lat="45.42148" lon="6.18155">
        <ele>1708.75</ele>
        <time>2015-06-27T15:29:34Z</time>
      </trkpt>
      <trkpt lat="45.42129" lon="6.1815">
        <ele>1718.4</ele>
        <time>2015-06-27T15:30:30Z</time>
      </trkpt>
      <trkpt lat="45.42113" lon="6.18164">
        <ele>1724.25</ele>
        <time>2015-06-27T15:30:53Z</time>
      </trkpt>
      <trkpt lat="45.42098" lon="6.1818">
        <ele>1722.14</ele>
        <time>2015-06-27T15:31:14Z</time>
      </trkpt>
      <trkpt lat="45.42083" lon="6.18165">
        <ele>1728.63</ele>
        <time>2015-06-27T15:31:44Z</time>
      </trkpt>
      <trkpt lat="45.42076" lon="6.18142">
        <ele>1733</ele>
        <time>2015-06-27T15:32:10Z</time>
      </trkpt>
      <trkpt lat="45.42064" lon="6.18123">
        <ele>1739.81</ele>
        <time>2015-06-27T15:32:40Z</time>
      </trkpt>
      <trkpt lat="45.42047" lon="6.18116">
        <ele>1748.75</ele>
        <time>2015-06-27T15:33:12Z</time>
      </trkpt>
      <trkpt lat="45.42044" lon="6.18091">
        <ele>1752.88</ele>
        <time>2015-06-27T15:33:41Z</time>
      </trkpt>
      <trkpt lat="45.42034" lon="6.18069">
        <ele>1753.88</ele>
        <time>2015-06-27T15:35:08Z</time>
      </trkpt>
      <trkpt lat="45.42016" lon="6.18073">
        <ele>1753.08</ele>
        <time>2015-06-27T15:35:25Z</time>
      </trkpt>
      <trkpt lat="45.41998" lon="6.18072">
        <ele>1755.81</ele>
        <time>2015-06-27T15:35:42Z</time>
      </trkpt>
      <trkpt lat="45.41984" lon="6.18088">
        <ele>1759.75</ele>
        <time>2015-06-27T15:36:01Z</time>
      </trkpt>
      <trkpt lat="45.41983" lon="6.18114">
        <ele>1763.49</ele>
        <time>2015-06-27T15:36:19Z</time>
      </trkpt>
      <trkpt lat="45.41988" lon="6.1814">
        <ele>1761.77</ele>
        <time>2015-06-27T15:36:38Z</time>
      </trkpt>
      <trkpt lat="45.4197" lon="6.18141">
        <ele>1773.27</ele>
        <time>2015-06-27T15:37:14Z</time>
      </trkpt>
      <trkpt lat="45.41954" lon="6.18128">
        <ele>1780.41</ele>
        <time>2015-06-27T15:37:39Z</time>
      </trkpt>
      <trkpt lat="45.41941" lon="6.18109">
        <ele>1780.88</ele>
        <time>2015-06-27T15:38:04Z</time>
      </trkpt>
      <trkpt lat="45.41947" lon="6.18084">
        <ele>1780.77</ele>
        <time>2015-06-27T15:38:29Z</time>
      </trkpt>
      <trkpt lat="45.41939" lon="6.18059">
        <ele>1790.59</ele>
        <time>2015-06-27T15:39:31Z</time>
      </trkpt>
      <trkpt lat="45.41923" lon="6.18048">
        <ele>1796.87</ele>
        <time>2015-06-27T15:40:02Z</time>
      </trkpt>
      <trkpt lat="45.41914" lon="6.18025">
        <ele>1800.12</ele>
        <time>2015-06-27T15:40:25Z</time>
      </trkpt>
      <trkpt lat="45.41922" lon="6.18001">
        <ele>1796.91</ele>
        <time>2015-06-27T15:40:44Z</time>
      </trkpt>
      <trkpt lat="45.41936" lon="6.17984">
        <ele>1797.75</ele>
        <time>2015-06-27T15:41:02Z</time>
      </trkpt>
      <trkpt lat="45.41951" lon="6.17968">
        <ele>1797.33</ele>
        <time>2015-06-27T15:41:19Z</time>
      </trkpt>
      <trkpt lat="45.41962" lon="6.17946">
        <ele>1796.88</ele>
        <time>2015-06-27T15:41:34Z</time>
      </trkpt>
      <trkpt lat="45.4197" lon="6.17923">
        <ele>1799.31</ele>
        <time>2015-06-27T15:41:53Z</time>
      </trkpt>
      <trkpt lat="45.41986" lon="6.17911">
        <ele>1802.86</ele>
        <time>2015-06-27T15:42:12Z</time>
      </trkpt>
      <trkpt lat="45.42001" lon="6.17894">
        <ele>1806.78</ele>
        <time>2015-06-27T15:42:34Z</time>
      </trkpt>
      <trkpt lat="45.42014" lon="6.17876">
        <ele>1807.43</ele>
        <time>2015-06-27T15:42:52Z</time>
      </trkpt>
      <trkpt lat="45.42026" lon="6.17856">
        <ele>1806.91</ele>
        <time>2015-06-27T15:43:08Z</time>
      </trkpt>
      <trkpt lat="45.42038" lon="6.17836">
        <ele>1807.75</ele>
        <time>2015-06-27T15:43:24Z</time>
      </trkpt>
      <trkpt lat="45.42052" lon="6.17817">
        <ele>1808.85</ele>
        <time>2015-06-27T15:43:41Z</time>
      </trkpt>
      <trkpt lat="45.42069" lon="6.17809">
        <ele>1812.37</ele>
        <time>2015-06-27T15:44:01Z</time>
      </trkpt>
      <trkpt lat="45.42088" lon="6.17814">
        <ele>1813.38</ele>
        <time>2015-06-27T15:44:18Z</time>
      </trkpt>
      <trkpt lat="45.42106" lon="6.17813">
        <ele>1814.61</ele>
        <time>2015-06-27T15:44:36Z</time>
      </trkpt>
      <trkpt lat="45.42124" lon="6.17815">
        <ele>1813</ele>
        <time>2015-06-27T15:45:05Z</time>
      </trkpt>
      <trkpt lat="45.42142" lon="6.17822">
        <ele>1809.94</ele>
        <time>2015-06-27T15:45:48Z</time>
      </trkpt>
      <trkpt lat="45.42161" lon="6.1782">
        <ele>1809.39</ele>
        <time>2015-06-27T15:46:03Z</time>
      </trkpt>
      <trkpt lat="45.42179" lon="6.17821">
        <ele>1810.88</ele>
        <time>2015-06-27T15:46:17Z</time>
      </trkpt>
      <trkpt lat="45.42197" lon="6.17819">
        <ele>1812.76</ele>
        <time>2015-06-27T15:46:32Z</time>
      </trkpt>
      <trkpt lat="45.422" lon="6.17792">
        <ele>1813.75</ele>
        <time>2015-06-27T15:46:48Z</time>
      </trkpt>
      <trkpt lat="45.42201" lon="6.17766">
        <ele>1817.87</ele>
        <time>2015-06-27T15:47:06Z</time>
      </trkpt>
      <trkpt lat="45.42201" lon="6.1774">
        <ele>1822.69</ele>
        <time>2015-06-27T15:47:24Z</time>
      </trkpt>
      <trkpt lat="45.42204" lon="6.17714">
        <ele>1826.8</ele>
        <time>2015-06-27T15:47:43Z</time>
      </trkpt>
      <trkpt lat="45.42192" lon="6.17693">
        <ele>1822.58</ele>
        <time>2015-06-27T15:48:01Z</time>
      </trkpt>
      <trkpt lat="45.42176" lon="6.1768">
        <ele>1818.91</ele>
        <time>2015-06-27T15:48:17Z</time>
      </trkpt>
      <trkpt lat="45.42159" lon="6.1767">
        <ele>1815.02</ele>
        <time>2015-06-27T15:48:32Z</time>
      </trkpt>
      <trkpt lat="45.42147" lon="6.1765">
        <ele>1814.87</ele>
        <time>2015-06-27T15:48:48Z</time>
      </trkpt>
      <trkpt lat="45.42148" lon="6.17624">
        <ele>1814.41</ele>
        <time>2015-06-27T15:49:01Z</time>
      </trkpt>
      <trkpt lat="45.42165" lon="6.17633">
        <ele>1802.65</ele>
        <time>2015-06-27T15:49:33Z</time>
      </trkpt>
      <trkpt lat="45.42182" lon="6.17624">
        <ele>1794.01</ele>
        <time>2015-06-27T15:49:59Z</time>
      </trkpt>
      <trkpt lat="45.42198" lon="6.17611">
        <ele>1788.94</ele>
        <time>2015-06-27T15:50:20Z</time>
      </trkpt>
      <trkpt lat="45.42216" lon="6.17601">
        <ele>1783.96</ele>
        <time>2015-06-27T15:50:40Z</time>
      </trkpt>
      <trkpt lat="45.42234" lon="6.17599">
        <ele>1779.91</ele>
        <time>2015-06-27T15:50:56Z</time>
      </trkpt>
      <trkpt lat="45.42247" lon="6.1758">
        <ele>1773.15</ele>
        <time>2015-06-27T15:51:18Z</time>
      </trkpt>
      <trkpt lat="45.42245" lon="6.17553">
        <ele>1769.05</ele>
        <time>2015-06-27T15:51:36Z</time>
      </trkpt>
      <trkpt lat="45.42249" lon="6.17527">
        <ele>1766.35</ele>
        <time>2015-06-27T15:51:53Z</time>
      </trkpt>
      <trkpt lat="45.42256" lon="6.17502">
        <ele>1761.21</ele>
        <time>2015-06-27T15:52:12Z</time>
      </trkpt>
      <trkpt lat="45.42262" lon="6.17477">
        <ele>1755.92</ele>
        <time>2015-06-27T15:52:30Z</time>
      </trkpt>
      <trkpt lat="45.42271" lon="6.17454">
        <ele>1753.14</ele>
        <time>2015-06-27T15:52:47Z</time>
      </trkpt>
      <trkpt lat="45.42281" lon="6.17431">
        <ele>1748.9</ele>
        <time>2015-06-27T15:53:05Z</time>
      </trkpt>
      <trkpt lat="45.42287" lon="6.17407">
        <ele>1743.04</ele>
        <time>2015-06-27T15:53:21Z</time>
      </trkpt>
      <trkpt lat="45.42282" lon="6.17382">
        <ele>1744</ele>
        <time>2015-06-27T15:53:35Z</time>
      </trkpt>
      <trkpt lat="45.4228" lon="6.17357">
        <ele>1745.75</ele>
        <time>2015-06-27T15:53:50Z</time>
      </trkpt>
      <trkpt lat="45.42277" lon="6.1733">
        <ele>1744.89</ele>
        <time>2015-06-27T15:54:04Z</time>
      </trkpt>
      <trkpt lat="45.42267" lon="6.17307">
        <ele>1746.86</ele>
        <time>2015-06-27T15:54:20Z</time>
      </trkpt>
      <trkpt lat="45.42263" lon="6.17282">
        <ele>1746.99</ele>
        <time>2015-06-27T15:54:34Z</time>
      </trkpt>
      <trkpt lat="45.42256" lon="6.17257">
        <ele>1744.89</ele>
        <time>2015-06-27T15:54:51Z</time>
      </trkpt>
      <trkpt lat="45.42247" lon="6.17235">
        <ele>1744.15</ele>
        <time>2015-06-27T15:55:08Z</time>
      </trkpt>
      <trkpt lat="45.42243" lon="6.17209">
        <ele>1744.63</ele>
        <time>2015-06-27T15:55:23Z</time>
      </trkpt>
      <trkpt lat="45.42239" lon="6.17184">
        <ele>1744.88</ele>
        <time>2015-06-27T15:55:40Z</time>
      </trkpt>
      <trkpt lat="45.42238" lon="6.17157">
        <ele>1743.88</ele>
        <time>2015-06-27T15:55:55Z</time>
      </trkpt>
      <trkpt lat="45.42235" lon="6.17131">
        <ele>1744.85</ele>
        <time>2015-06-27T15:56:12Z</time>
      </trkpt>
      <trkpt lat="45.42235" lon="6.17104">
        <ele>1746.12</ele>
        <time>2015-06-27T15:56:29Z</time>
      </trkpt>
      <trkpt lat="45.42243" lon="6.1708">
        <ele>1745.15</ele>
        <time>2015-06-27T15:56:46Z</time>
      </trkpt>
      <trkpt lat="45.4225" lon="6.17055">
        <ele>1746.64</ele>
        <time>2015-06-27T15:57:03Z</time>
      </trkpt>
      <trkpt lat="45.42256" lon="6.1703">
        <ele>1746.89</ele>
        <time>2015-06-27T15:57:27Z</time>
      </trkpt>
      <trkpt lat="45.4224" lon="6.17017">
        <ele>1741.88</ele>
        <time>2015-06-27T15:57:58Z</time>
      </trkpt>
      <trkpt lat="45.42221" lon="6.17012">
        <ele>1742.87</ele>
        <time>2015-06-27T15:58:13Z</time>
      </trkpt>
      <trkpt lat="45.42202" lon="6.17007">
        <ele>1740.14</ele>
        <time>2015-06-27T15:58:27Z</time>
      </trkpt>
      <trkpt lat="45.42183" lon="6.17006">
        <ele>1739.76</ele>
        <time>2015-06-27T15:58:42Z</time>
      </trkpt>
      <trkpt lat="45.42165" lon="6.17002">
        <ele>1738.51</ele>
        <time>2015-06-27T15:58:58Z</time>
      </trkpt>
      <trkpt lat="45.42147" lon="6.17002">
        <ele>1734.39</ele>
        <time>2015-06-27T15:59:12Z</time>
      </trkpt>
      <trkpt lat="45.42127" lon="6.17003">
        <ele>1734.92</ele>
        <time>2015-06-27T15:59:28Z</time>
      </trkpt>
      <trkpt lat="45.42107" lon="6.17006">
        <ele>1733.88</ele>
        <time>2015-06-27T15:59:42Z</time>
      </trkpt>
      <trkpt lat="45.42089" lon="6.17004">
        <ele>1734</ele>
        <time>2015-06-27T15:59:53Z</time>
      </trkpt>
      <trkpt lat="45.4207" lon="6.17">
        <ele>1733.87</ele>
        <time>2015-06-27T16:00:06Z</time>
      </trkpt>
      <trkpt lat="45.42052" lon="6.16995">
        <ele>1735.69</ele>
        <time>2015-06-27T16:00:19Z</time>
      </trkpt>
      <trkpt lat="45.42007" lon="6.16963">
        <ele>1732.88</ele>
        <time>2015-06-27T16:00:59Z</time>
      </trkpt>
      <trkpt lat="45.41966" lon="6.16904">
        <ele>1724.88</ele>
        <time>2015-06-27T16:02:04Z</time>
      </trkpt>
      <trkpt lat="45.4195" lon="6.16894">
        <ele>1725.88</ele>
        <time>2015-06-27T16:02:21Z</time>
      </trkpt>
      <trkpt lat="45.41847" lon="6.16798">
        <ele>1696.88</ele>
        <time>2015-06-27T16:06:16Z</time>
      </trkpt>
      <trkpt lat="45.41845" lon="6.16824">
        <ele>1696.86</ele>
        <time>2015-06-27T16:06:59Z</time>
      </trkpt>
      <trkpt lat="45.41848" lon="6.16849">
        <ele>1697.07</ele>
        <time>2015-06-27T16:07:17Z</time>
      </trkpt>
    </trkseg>
  </trk>
</gpx>